Back to Top

Language: 

My Weather Underground Personal Weather Station Historical Data with Graphs...

Delerius Weather Station Historical Data
Daily Summary for January 21, 2017 Units:  Both    English   Metric
« Previous Day
Next Day »
Daily Weekly Monthly Yearly Custom
  High: Low: Average:
Temperature: 39.9 °F /  4.4 °C 34.0 °F /  1.1 °C 37.5 °F /  3.1 °C
Dew Point: 38.0 °F /  3.3 °C 32.7 °F /  0.4 °C 36 °F /  2.2 °C
Humidity: 97 % 85 % 94 %
Wind Speed: 7.0 mph /  11.3 km/h - 2.4 mph /  3.9 km/h
Wind Gust: 7.0 mph /  11.3 km/h - -
Wind:- - ESE
Pressure: 30.50 in /  1032.7 hPa 30.27 in /  1024.9 hPa -
Precipitation: 0.00 in /  0 mm    
Historical Graphs
 
 
Tabular Data for January 21, 2017
Time Temperature Dew Point Pressure Wind Wind Speed Wind Gust Humidity Rainfall Rate (Hourly) solar Conditions
00:00 34.0 °F /  1.1 °C 33.0 °F /  0.6 °C 30.50 in /  1032.7 hPa Calm     96 % 0.00 in /  0 mm 0 W/m2
00:01 34.0 °F /  1.1 °C 33.0 °F /  0.6 °C 30.50 in /  1032.7 hPa Calm   -999.0 mph /  -1607.7 km/h 96 % 0.00 in /  0 mm 0 W/m2
00:05 34.0 °F /  1.1 °C 32.7 °F /  0.4 °C 30.50 in /  1032.7 hPa Calm     95 % 0.00 in /  0 mm 0 W/m2
00:06 34.0 °F /  1.1 °C 33.0 °F /  0.6 °C 30.50 in /  1032.7 hPa Calm   -999.0 mph /  -1607.7 km/h 96 % 0.00 in /  0 mm 0 W/m2
00:11 34.0 °F /  1.1 °C 33.0 °F /  0.6 °C 30.50 in /  1032.7 hPa Calm   -999.0 mph /  -1607.7 km/h 96 % 0.00 in /  0 mm 0 W/m2
00:15 34.1 °F /  1.2 °C 32.8 °F /  0.4 °C 30.50 in /  1032.7 hPa Calm     95 % 0.00 in /  0 mm 0 W/m2
00:16 34.0 °F /  1.1 °C 33.0 °F /  0.6 °C 30.50 in /  1032.7 hPa Calm   -999.0 mph /  -1607.7 km/h 96 % 0.00 in /  0 mm 0 W/m2
00:20 34.2 °F /  1.2 °C 33.2 °F /  0.7 °C 30.50 in /  1032.7 hPa Calm     96 % 0.00 in /  0 mm 0 W/m2
00:21 34.0 °F /  1.1 °C 33.0 °F /  0.6 °C 30.50 in /  1032.7 hPa Calm   -999.0 mph /  -1607.7 km/h 96 % 0.00 in /  0 mm 0 W/m2
00:26 34.3 °F /  1.3 °C 33.3 °F /  0.7 °C 30.50 in /  1032.7 hPa Calm   -999.0 mph /  -1607.7 km/h 96 % 0.00 in /  0 mm 0 W/m2
00:30 34.4 °F /  1.3 °C 33.4 °F /  0.8 °C 30.50 in /  1032.7 hPa Calm     96 % 0.00 in /  0 mm 0 W/m2
00:31 34.3 °F /  1.3 °C 33.3 °F /  0.7 °C 30.50 in /  1032.7 hPa Calm   -999.0 mph /  -1607.7 km/h 96 % 0.00 in /  0 mm 0 W/m2
00:35 34.5 °F /  1.4 °C 33.5 °F /  0.8 °C 30.50 in /  1032.7 hPa Calm     96 % 0.00 in /  0 mm 0 W/m2
00:36 34.3 °F /  1.3 °C 33.3 °F /  0.7 °C 30.50 in /  1032.7 hPa Calm   -999.0 mph /  -1607.7 km/h 96 % 0.00 in /  0 mm 0 W/m2
00:40 34.6 °F /  1.4 °C 33.6 °F /  0.9 °C 30.49 in /  1032.4 hPa Calm     96 % 0.00 in /  0 mm 0 W/m2
00:41 34.5 °F /  1.4 °C 33.2 °F /  0.7 °C 30.49 in /  1032.4 hPa Calm   -999.0 mph /  -1607.7 km/h 95 % 0.00 in /  0 mm 0 W/m2
00:46 34.5 °F /  1.4 °C 33.2 °F /  0.7 °C 30.49 in /  1032.4 hPa Calm   -999.0 mph /  -1607.7 km/h 95 % 0.00 in /  0 mm 0 W/m2
00:50 34.4 °F /  1.3 °C 33.1 °F /  0.6 °C 30.50 in /  1032.7 hPa Calm     95 % 0.00 in /  0 mm 0 W/m2
00:51 34.5 °F /  1.4 °C 33.2 °F /  0.7 °C 30.49 in /  1032.4 hPa Calm   -999.0 mph /  -1607.7 km/h 95 % 0.00 in /  0 mm 0 W/m2
00:55 34.5 °F /  1.4 °C 33.2 °F /  0.7 °C 30.49 in /  1032.4 hPa Calm     95 % 0.00 in /  0 mm 0 W/m2
00:56 34.5 °F /  1.4 °C 33.5 °F /  0.8 °C 30.49 in /  1032.4 hPa Calm   -999.0 mph /  -1607.7 km/h 96 % 0.00 in /  0 mm 0 W/m2
01:00 34.6 °F /  1.4 °C 33.6 °F /  0.9 °C 30.49 in /  1032.4 hPa Calm     96 % 0.00 in /  0 mm 0 W/m2
01:01 34.5 °F /  1.4 °C 33.5 °F /  0.8 °C 30.49 in /  1032.4 hPa Calm   -999.0 mph /  -1607.7 km/h 96 % 0.00 in /  0 mm 0 W/m2
01:05 34.8 °F /  1.6 °C 33.8 °F /  1 °C 30.49 in /  1032.4 hPa Calm     96 % 0.00 in /  0 mm 0 W/m2
01:06 34.5 °F /  1.4 °C 33.5 °F /  0.8 °C 30.49 in /  1032.4 hPa Calm   -999.0 mph /  -1607.7 km/h 96 % 0.00 in /  0 mm 0 W/m2
01:10 35.1 °F /  1.7 °C 34.1 °F /  1.2 °C 30.49 in /  1032.4 hPa Calm     96 % 0.00 in /  0 mm 0 W/m2
01:11 35.0 °F /  1.7 °C 34.0 °F /  1.1 °C 30.49 in /  1032.4 hPa Calm   -999.0 mph /  -1607.7 km/h 96 % 0.00 in /  0 mm 0 W/m2
01:15 35.3 °F /  1.8 °C 34.3 °F /  1.3 °C 30.49 in /  1032.4 hPa Calm     96 % 0.00 in /  0 mm 0 W/m2
01:16 35.0 °F /  1.7 °C 34.0 °F /  1.1 °C 30.49 in /  1032.4 hPa Calm   -999.0 mph /  -1607.7 km/h 96 % 0.00 in /  0 mm 0 W/m2
01:21 35.0 °F /  1.7 °C 34.0 °F /  1.1 °C 30.49 in /  1032.4 hPa Calm   -999.0 mph /  -1607.7 km/h 96 % 0.00 in /  0 mm 0 W/m2
01:25 35.4 °F /  1.9 °C 34.4 °F /  1.3 °C 30.49 in /  1032.4 hPa Calm     96 % 0.00 in /  0 mm 0 W/m2
01:26 35.4 °F /  1.9 °C 34.4 °F /  1.3 °C 30.49 in /  1032.4 hPa Calm   -999.0 mph /  -1607.7 km/h 96 % 0.00 in /  0 mm 0 W/m2
01:30 35.5 °F /  1.9 °C 34.5 °F /  1.4 °C 30.49 in /  1032.4 hPa Calm     96 % 0.00 in /  0 mm 0 W/m2
01:31 35.4 °F /  1.9 °C 34.4 °F /  1.3 °C 30.49 in /  1032.4 hPa Calm   -999.0 mph /  -1607.7 km/h 96 % 0.00 in /  0 mm 0 W/m2
01:36 35.4 °F /  1.9 °C 34.4 °F /  1.3 °C 30.49 in /  1032.4 hPa Calm   -999.0 mph /  -1607.7 km/h 96 % 0.00 in /  0 mm 0 W/m2
01:40 35.6 °F /  2 °C 34.6 °F /  1.4 °C 30.49 in /  1032.4 hPa Calm     96 % 0.00 in /  0 mm 0 W/m2
01:41 35.6 °F /  2 °C 34.6 °F /  1.4 °C 30.49 in /  1032.4 hPa Calm   -999.0 mph /  -1607.7 km/h 96 % 0.00 in /  0 mm 0 W/m2
01:45 35.7 °F /  2.1 °C 34.7 °F /  1.5 °C 30.49 in /  1032.4 hPa Calm     96 % 0.00 in /  0 mm 0 W/m2
01:46 35.6 °F /  2 °C 34.6 °F /  1.4 °C 30.49 in /  1032.4 hPa Calm   -999.0 mph /  -1607.7 km/h 96 % 0.00 in /  0 mm 0 W/m2
01:50 35.7 °F /  2.1 °C 34.7 °F /  1.5 °C 30.49 in /  1032.4 hPa Calm     96 % 0.00 in /  0 mm 0 W/m2
01:51 35.6 °F /  2 °C 34.6 °F /  1.4 °C 30.49 in /  1032.4 hPa Calm   -999.0 mph /  -1607.7 km/h 96 % 0.00 in /  0 mm 0 W/m2
01:55 35.7 °F /  2.1 °C 34.7 °F /  1.5 °C 30.49 in /  1032.4 hPa Calm     96 % 0.00 in /  0 mm 0 W/m2
01:56 35.7 °F /  2.1 °C 34.7 °F /  1.5 °C 30.49 in /  1032.4 hPa Calm   -999.0 mph /  -1607.7 km/h 96 % 0.00 in /  0 mm 0 W/m2
02:00 35.7 °F /  2.1 °C 34.7 °F /  1.5 °C 30.49 in /  1032.4 hPa Calm     96 % 0.00 in /  0 mm 0 W/m2
02:01 35.7 °F /  2.1 °C 34.7 °F /  1.5 °C 30.49 in /  1032.4 hPa Calm   -999.0 mph /  -1607.7 km/h 96 % 0.00 in /  0 mm 0 W/m2
02:05 35.6 °F /  2 °C 34.6 °F /  1.4 °C 30.49 in /  1032.4 hPa Calm     96 % 0.00 in /  0 mm 0 W/m2
02:06 35.7 °F /  2.1 °C 34.7 °F /  1.5 °C 30.49 in /  1032.4 hPa Calm   -999.0 mph /  -1607.7 km/h 96 % 0.00 in /  0 mm 0 W/m2
02:10 35.4 °F /  1.9 °C 34.4 °F /  1.3 °C 30.49 in /  1032.4 hPa Calm     96 % 0.00 in /  0 mm 0 W/m2
02:11 35.5 °F /  1.9 °C 34.2 °F /  1.2 °C 30.49 in /  1032.4 hPa Calm   -999.0 mph /  -1607.7 km/h 95 % 0.00 in /  0 mm 0 W/m2
02:15 35.2 °F /  1.8 °C 33.9 °F /  1.1 °C 30.49 in /  1032.4 hPa Calm     95 % 0.00 in /  0 mm 0 W/m2
02:16 35.5 °F /  1.9 °C 34.2 °F /  1.2 °C 30.49 in /  1032.4 hPa Calm   -999.0 mph /  -1607.7 km/h 95 % 0.00 in /  0 mm 0 W/m2
02:21 35.5 °F /  1.9 °C 34.2 °F /  1.2 °C 30.49 in /  1032.4 hPa Calm   -999.0 mph /  -1607.7 km/h 95 % 0.00 in /  0 mm 0 W/m2
02:25 35.0 °F /  1.7 °C 33.7 °F /  0.9 °C 30.48 in /  1032.1 hPa Calm     95 % 0.00 in /  0 mm 0 W/m2
02:26 35.1 °F /  1.7 °C 33.8 °F /  1 °C 30.48 in /  1032.1 hPa Calm   -999.0 mph /  -1607.7 km/h 95 % 0.00 in /  0 mm 0 W/m2
02:31 35.1 °F /  1.7 °C 33.8 °F /  1 °C 30.48 in /  1032.1 hPa Calm   -999.0 mph /  -1607.7 km/h 95 % 0.00 in /  0 mm 0 W/m2
02:35 34.7 °F /  1.5 °C 33.4 °F /  0.8 °C 30.48 in /  1032.1 hPa Calm     95 % 0.00 in /  0 mm 0 W/m2
02:36 35.1 °F /  1.7 °C 33.8 °F /  1 °C 30.48 in /  1032.1 hPa Calm   -999.0 mph /  -1607.7 km/h 95 % 0.00 in /  0 mm 0 W/m2
02:40 34.5 °F /  1.4 °C 33.2 °F /  0.7 °C 30.48 in /  1032.1 hPa Calm     95 % 0.00 in /  0 mm 0 W/m2
02:41 34.5 °F /  1.4 °C 33.2 °F /  0.7 °C 30.48 in /  1032.1 hPa Calm   -999.0 mph /  -1607.7 km/h 95 % 0.00 in /  0 mm 0 W/m2
02:45 34.3 °F /  1.3 °C 33.0 °F /  0.6 °C 30.48 in /  1032.1 hPa Calm     95 % 0.00 in /  0 mm 0 W/m2
02:46 34.5 °F /  1.4 °C 33.2 °F /  0.7 °C 30.48 in /  1032.1 hPa Calm   -999.0 mph /  -1607.7 km/h 95 % 0.00 in /  0 mm 0 W/m2
02:50 34.4 °F /  1.3 °C 33.4 °F /  0.8 °C 30.48 in /  1032.1 hPa Calm     96 % 0.00 in /  0 mm 0 W/m2
02:51 34.5 °F /  1.4 °C 33.2 °F /  0.7 °C 30.48 in /  1032.1 hPa Calm   -999.0 mph /  -1607.7 km/h 95 % 0.00 in /  0 mm 0 W/m2
02:55 34.4 °F /  1.3 °C 33.4 °F /  0.8 °C 30.48 in /  1032.1 hPa Calm     96 % 0.00 in /  0 mm 0 W/m2
02:56 34.4 °F /  1.3 °C 33.4 °F /  0.8 °C 30.48 in /  1032.1 hPa Calm   -999.0 mph /  -1607.7 km/h 96 % 0.00 in /  0 mm 0 W/m2
03:00 34.5 °F /  1.4 °C 33.5 °F /  0.8 °C 30.48 in /  1032.1 hPa Calm     96 % 0.00 in /  0 mm 0 W/m2
03:01 34.4 °F /  1.3 °C 33.4 °F /  0.8 °C 30.48 in /  1032.1 hPa Calm   -999.0 mph /  -1607.7 km/h 96 % 0.00 in /  0 mm 0 W/m2
03:05 34.6 °F /  1.4 °C 33.6 °F /  0.9 °C 30.47 in /  1031.7 hPa Calm     96 % 0.00 in /  0 mm 0 W/m2
03:06 34.4 °F /  1.3 °C 33.4 °F /  0.8 °C 30.48 in /  1032.1 hPa Calm   -999.0 mph /  -1607.7 km/h 96 % 0.00 in /  0 mm 0 W/m2
03:10 34.5 °F /  1.4 °C 33.5 °F /  0.8 °C 30.47 in /  1031.7 hPa Calm     96 % 0.00 in /  0 mm 0 W/m2
03:11 34.5 °F /  1.4 °C 33.5 °F /  0.8 °C 30.47 in /  1031.7 hPa Calm   -999.0 mph /  -1607.7 km/h 96 % 0.00 in /  0 mm 0 W/m2
03:16 34.5 °F /  1.4 °C 33.5 °F /  0.8 °C 30.47 in /  1031.7 hPa Calm   -999.0 mph /  -1607.7 km/h 96 % 0.00 in /  0 mm 0 W/m2
03:20 34.6 °F /  1.4 °C 33.6 °F /  0.9 °C 30.47 in /  1031.7 hPa Calm     96 % 0.00 in /  0 mm 0 W/m2
03:21 34.5 °F /  1.4 °C 33.5 °F /  0.8 °C 30.47 in /  1031.7 hPa Calm   -999.0 mph /  -1607.7 km/h 96 % 0.00 in /  0 mm 0 W/m2
03:25 34.7 °F /  1.5 °C 33.7 °F /  0.9 °C 30.47 in /  1031.7 hPa Calm     96 % 0.00 in /  0 mm 0 W/m2
03:26 34.6 °F /  1.4 °C 33.6 °F /  0.9 °C 30.46 in /  1031.4 hPa Calm   -999.0 mph /  -1607.7 km/h 96 % 0.00 in /  0 mm 0 W/m2
03:30 34.7 °F /  1.5 °C 33.7 °F /  0.9 °C 30.46 in /  1031.4 hPa Calm     96 % 0.00 in /  0 mm 0 W/m2
03:31 34.6 °F /  1.4 °C 33.6 °F /  0.9 °C 30.46 in /  1031.4 hPa Calm   -999.0 mph /  -1607.7 km/h 96 % 0.00 in /  0 mm 0 W/m2
03:36 34.6 °F /  1.4 °C 33.6 °F /  0.9 °C 30.46 in /  1031.4 hPa Calm   -999.0 mph /  -1607.7 km/h 96 % 0.00 in /  0 mm 0 W/m2
03:40 35.1 °F /  1.7 °C 34.1 °F /  1.2 °C 30.46 in /  1031.4 hPa Calm     96 % 0.00 in /  0 mm 0 W/m2
03:41 35.0 °F /  1.7 °C 34.0 °F /  1.1 °C 30.46 in /  1031.4 hPa Calm   -999.0 mph /  -1607.7 km/h 96 % 0.00 in /  0 mm 0 W/m2
03:45 35.3 °F /  1.8 °C 34.3 °F /  1.3 °C 30.46 in /  1031.4 hPa Calm     96 % 0.00 in /  0 mm 0 W/m2
03:46 35.0 °F /  1.7 °C 34.0 °F /  1.1 °C 30.46 in /  1031.4 hPa Calm   -999.0 mph /  -1607.7 km/h 96 % 0.00 in /  0 mm 0 W/m2
03:50 35.3 °F /  1.8 °C 34.3 °F /  1.3 °C 30.46 in /  1031.4 hPa Calm     96 % 0.00 in /  0 mm 0 W/m2
03:51 35.0 °F /  1.7 °C 34.0 °F /  1.1 °C 30.46 in /  1031.4 hPa Calm   -999.0 mph /  -1607.7 km/h 96 % 0.00 in /  0 mm 0 W/m2
03:55 35.6 °F /  2 °C 34.8 °F /  1.6 °C 30.46 in /  1031.4 hPa Calm     97 % 0.00 in /  0 mm 0 W/m2
03:56 35.5 °F /  1.9 °C 34.7 °F /  1.5 °C 30.46 in /  1031.4 hPa Calm   -999.0 mph /  -1607.7 km/h 97 % 0.00 in /  0 mm 0 W/m2
04:00 35.8 °F /  2.1 °C 35.0 °F /  1.7 °C 30.46 in /  1031.4 hPa Calm     97 % 0.00 in /  0 mm 0 W/m2
04:01 35.5 °F /  1.9 °C 34.7 °F /  1.5 °C 30.46 in /  1031.4 hPa Calm   -999.0 mph /  -1607.7 km/h 97 % 0.00 in /  0 mm 0 W/m2
04:06 35.5 °F /  1.9 °C 34.7 °F /  1.5 °C 30.46 in /  1031.4 hPa Calm   -999.0 mph /  -1607.7 km/h 97 % 0.00 in /  0 mm 0 W/m2
04:10 35.6 °F /  2 °C 34.6 °F /  1.4 °C 30.46 in /  1031.4 hPa Calm     96 % 0.00 in /  0 mm 0 W/m2
04:11 35.6 °F /  2 °C 34.6 °F /  1.4 °C 30.46 in /  1031.4 hPa Calm   -999.0 mph /  -1607.7 km/h 96 % 0.00 in /  0 mm 0 W/m2
04:15 35.5 °F /  1.9 °C 34.5 °F /  1.4 °C 30.46 in /  1031.4 hPa Calm     96 % 0.00 in /  0 mm 0 W/m2
04:16 35.6 °F /  2 °C 34.6 °F /  1.4 °C 30.46 in /  1031.4 hPa Calm   -999.0 mph /  -1607.7 km/h 96 % 0.00 in /  0 mm 0 W/m2
04:20 35.5 °F /  1.9 °C 34.5 °F /  1.4 °C 30.46 in /  1031.4 hPa Calm     96 % 0.00 in /  0 mm 0 W/m2
04:21 35.6 °F /  2 °C 34.6 °F /  1.4 °C 30.46 in /  1031.4 hPa Calm   -999.0 mph /  -1607.7 km/h 96 % 0.00 in /  0 mm 0 W/m2
04:25 35.5 °F /  1.9 °C 34.5 °F /  1.4 °C 30.46 in /  1031.4 hPa Calm     96 % 0.00 in /  0 mm 0 W/m2
04:26 35.5 °F /  1.9 °C 34.5 °F /  1.4 °C 30.45 in /  1031 hPa Calm   -999.0 mph /  -1607.7 km/h 96 % 0.00 in /  0 mm 0 W/m2
04:30 35.5 °F /  1.9 °C 34.5 °F /  1.4 °C 30.45 in /  1031 hPa Calm     96 % 0.00 in /  0 mm 0 W/m2
04:31 35.5 °F /  1.9 °C 34.5 °F /  1.4 °C 30.45 in /  1031 hPa Calm   -999.0 mph /  -1607.7 km/h 96 % 0.00 in /  0 mm 0 W/m2
04:35 35.6 °F /  2 °C 34.6 °F /  1.4 °C 30.46 in /  1031.4 hPa Calm     96 % 0.00 in /  0 mm 0 W/m2
04:36 35.5 °F /  1.9 °C 34.5 °F /  1.4 °C 30.45 in /  1031 hPa Calm   -999.0 mph /  -1607.7 km/h 96 % 0.00 in /  0 mm 0 W/m2
04:40 35.7 °F /  2.1 °C 34.7 °F /  1.5 °C 30.45 in /  1031 hPa Calm     96 % 0.00 in /  0 mm 0 W/m2
04:41 35.7 °F /  2.1 °C 34.9 °F /  1.6 °C 30.46 in /  1031.4 hPa Calm   -999.0 mph /  -1607.7 km/h 97 % 0.00 in /  0 mm 0 W/m2
04:45 35.8 °F /  2.1 °C 35.0 °F /  1.7 °C 30.46 in /  1031.4 hPa Calm     97 % 0.00 in /  0 mm 0 W/m2
04:46 35.7 °F /  2.1 °C 34.9 °F /  1.6 °C 30.46 in /  1031.4 hPa Calm   -999.0 mph /  -1607.7 km/h 97 % 0.00 in /  0 mm 0 W/m2
04:50 36.0 °F /  2.2 °C 35.2 °F /  1.8 °C 30.46 in /  1031.4 hPa Calm   2.0 mph /  3.2 km/h 97 % 0.00 in /  0 mm 0 W/m2
04:51 35.7 °F /  2.1 °C 34.9 °F /  1.6 °C 30.46 in /  1031.4 hPa Calm   -999.0 mph /  -1607.7 km/h 97 % 0.00 in /  0 mm 0 W/m2
04:55 36.3 °F /  2.4 °C 35.5 °F /  1.9 °C 30.45 in /  1031 hPa ESE 2.0 mph /  3.2 km/h 4.0 mph /  6.4 km/h 97 % 0.00 in /  0 mm 0 W/m2
04:56 36.2 °F /  2.3 °C 35.4 °F /  1.9 °C 30.45 in /  1031 hPa ESE 1.0 mph /  1.6 km/h -999.0 mph /  -1607.7 km/h 97 % 0.00 in /  0 mm 0 W/m2
05:01 36.2 °F /  2.3 °C 35.4 °F /  1.9 °C 30.45 in /  1031 hPa ESE 1.0 mph /  1.6 km/h -999.0 mph /  -1607.7 km/h 97 % 0.00 in /  0 mm 0 W/m2
05:05 36.6 °F /  2.6 °C 35.8 °F /  2.1 °C 30.45 in /  1031 hPa SE 2.0 mph /  3.2 km/h 2.0 mph /  3.2 km/h 97 % 0.00 in /  0 mm 0 W/m2
05:06 36.2 °F /  2.3 °C 35.4 °F /  1.9 °C 30.45 in /  1031 hPa ESE 1.0 mph /  1.6 km/h -999.0 mph /  -1607.7 km/h 97 % 0.00 in /  0 mm 0 W/m2
05:10 36.8 °F /  2.7 °C 36.0 °F /  2.2 °C 30.45 in /  1031 hPa SE 2.0 mph /  3.2 km/h 2.0 mph /  3.2 km/h 97 % 0.00 in /  0 mm 0 W/m2
05:11 36.8 °F /  2.7 °C 36.0 °F /  2.2 °C 30.45 in /  1031 hPa SE 1.0 mph /  1.6 km/h -999.0 mph /  -1607.7 km/h 97 % 0.00 in /  0 mm 0 W/m2
05:15 36.9 °F /  2.7 °C 36.1 °F /  2.3 °C 30.45 in /  1031 hPa SE 1.0 mph /  1.6 km/h 2.0 mph /  3.2 km/h 97 % 0.00 in /  0 mm 0 W/m2
05:16 36.8 °F /  2.7 °C 36.0 °F /  2.2 °C 30.45 in /  1031 hPa SE 1.0 mph /  1.6 km/h -999.0 mph /  -1607.7 km/h 97 % 0.00 in /  0 mm 0 W/m2
05:20 37.0 °F /  2.8 °C 36.2 °F /  2.3 °C 30.45 in /  1031 hPa Calm   4.0 mph /  6.4 km/h 97 % 0.00 in /  0 mm 0 W/m2
05:21 36.8 °F /  2.7 °C 36.0 °F /  2.2 °C 30.45 in /  1031 hPa SE 1.0 mph /  1.6 km/h -999.0 mph /  -1607.7 km/h 97 % 0.00 in /  0 mm 0 W/m2
05:25 37.0 °F /  2.8 °C 36.2 °F /  2.3 °C 30.45 in /  1031 hPa ESE 1.0 mph /  1.6 km/h 7.0 mph /  11.3 km/h 97 % 0.00 in /  0 mm 0 W/m2
05:26 37.0 °F /  2.8 °C 36.2 °F /  2.3 °C 30.45 in /  1031 hPa ESE 2.0 mph /  3.2 km/h -999.0 mph /  -1607.7 km/h 97 % 0.00 in /  0 mm 0 W/m2
05:30 37.1 °F /  2.8 °C 36.3 °F /  2.4 °C 30.45 in /  1031 hPa ESE 3.0 mph /  4.8 km/h 3.0 mph /  4.8 km/h 97 % 0.00 in /  0 mm 0 W/m2
05:31 37.0 °F /  2.8 °C 36.2 °F /  2.3 °C 30.45 in /  1031 hPa ESE 2.0 mph /  3.2 km/h -999.0 mph /  -1607.7 km/h 97 % 0.00 in /  0 mm 0 W/m2
05:35 37.2 °F /  2.9 °C 36.4 °F /  2.4 °C 30.45 in /  1031 hPa SSE 2.0 mph /  3.2 km/h 6.0 mph /  9.7 km/h 97 % 0.00 in /  0 mm 0 W/m2
05:36 37.0 °F /  2.8 °C 36.2 °F /  2.3 °C 30.45 in /  1031 hPa ESE 2.0 mph /  3.2 km/h -999.0 mph /  -1607.7 km/h 97 % 0.00 in /  0 mm 0 W/m2
05:40 37.3 °F /  2.9 °C 36.5 °F /  2.5 °C 30.45 in /  1031 hPa SE 2.0 mph /  3.2 km/h 5.0 mph /  8 km/h 97 % 0.00 in /  0 mm 0 W/m2
05:41 37.3 °F /  2.9 °C 36.5 °F /  2.5 °C 30.45 in /  1031 hPa ESE 3.0 mph /  4.8 km/h -999.0 mph /  -1607.7 km/h 97 % 0.00 in /  0 mm 0 W/m2
05:45 37.3 °F /  2.9 °C 36.5 °F /  2.5 °C 30.45 in /  1031 hPa ESE 3.0 mph /  4.8 km/h 7.0 mph /  11.3 km/h 97 % 0.00 in /  0 mm 0 W/m2
05:46 37.3 °F /  2.9 °C 36.5 °F /  2.5 °C 30.45 in /  1031 hPa ESE 3.0 mph /  4.8 km/h -999.0 mph /  -1607.7 km/h 97 % 0.00 in /  0 mm 0 W/m2
05:51 37.3 °F /  2.9 °C 36.5 °F /  2.5 °C 30.45 in /  1031 hPa ESE 3.0 mph /  4.8 km/h -999.0 mph /  -1607.7 km/h 97 % 0.00 in /  0 mm 0 W/m2
05:55 37.4 °F /  3 °C 36.6 °F /  2.6 °C 30.45 in /  1031 hPa SSE 4.0 mph /  6.4 km/h 6.0 mph /  9.7 km/h 97 % 0.00 in /  0 mm 0 W/m2
05:56 37.4 °F /  3 °C 36.4 °F /  2.4 °C 30.44 in /  1030.7 hPa SE 4.0 mph /  6.4 km/h -999.0 mph /  -1607.7 km/h 96 % 0.00 in /  0 mm 0 W/m2
06:00 37.4 °F /  3 °C 36.4 °F /  2.4 °C 30.44 in /  1030.7 hPa ESE 3.0 mph /  4.8 km/h 5.0 mph /  8 km/h 96 % 0.00 in /  0 mm 0 W/m2
06:01 37.4 °F /  3 °C 36.4 °F /  2.4 °C 30.44 in /  1030.7 hPa SE 4.0 mph /  6.4 km/h -999.0 mph /  -1607.7 km/h 96 % 0.00 in /  0 mm 0 W/m2
06:06 37.4 °F /  3 °C 36.4 °F /  2.4 °C 30.44 in /  1030.7 hPa SE 4.0 mph /  6.4 km/h -999.0 mph /  -1607.7 km/h 96 % 0.00 in /  0 mm 0 W/m2
06:10 37.4 °F /  3 °C 36.4 °F /  2.4 °C 30.44 in /  1030.7 hPa ESE 2.0 mph /  3.2 km/h 2.0 mph /  3.2 km/h 96 % 0.00 in /  0 mm 0 W/m2
06:11 37.4 °F /  3 °C 36.4 °F /  2.4 °C 30.44 in /  1030.7 hPa ESE 2.0 mph /  3.2 km/h -999.0 mph /  -1607.7 km/h 96 % 0.00 in /  0 mm 0 W/m2
06:15 37.4 °F /  3 °C 36.4 °F /  2.4 °C 30.44 in /  1030.7 hPa SE 2.0 mph /  3.2 km/h 2.0 mph /  3.2 km/h 96 % 0.00 in /  0 mm 0 W/m2
06:16 37.4 °F /  3 °C 36.4 °F /  2.4 °C 30.44 in /  1030.7 hPa ESE 2.0 mph /  3.2 km/h -999.0 mph /  -1607.7 km/h 96 % 0.00 in /  0 mm 0 W/m2
06:20 37.5 °F /  3.1 °C 36.7 °F /  2.6 °C 30.44 in /  1030.7 hPa SE 1.0 mph /  1.6 km/h 1.0 mph /  1.6 km/h 97 % 0.00 in /  0 mm 0 W/m2
06:21 37.4 °F /  3 °C 36.4 °F /  2.4 °C 30.44 in /  1030.7 hPa ESE 2.0 mph /  3.2 km/h -999.0 mph /  -1607.7 km/h 96 % 0.00 in /  0 mm 0 W/m2
06:26 37.5 °F /  3.1 °C 36.7 °F /  2.6 °C 30.44 in /  1030.7 hPa ESE 2.0 mph /  3.2 km/h -999.0 mph /  -1607.7 km/h 97 % 0.00 in /  0 mm 0 W/m2
06:30 37.5 °F /  3.1 °C 36.7 °F /  2.6 °C 30.44 in /  1030.7 hPa ESE 2.0 mph /  3.2 km/h 4.0 mph /  6.4 km/h 97 % 0.00 in /  0 mm 0 W/m2
06:31 37.5 °F /  3.1 °C 36.7 °F /  2.6 °C 30.44 in /  1030.7 hPa ESE 2.0 mph /  3.2 km/h -999.0 mph /  -1607.7 km/h 97 % 0.00 in /  0 mm 0 W/m2
06:35 37.5 °F /  3.1 °C 36.7 °F /  2.6 °C 30.44 in /  1030.7 hPa ESE 3.0 mph /  4.8 km/h 6.0 mph /  9.7 km/h 97 % 0.00 in /  0 mm 0 W/m2
06:36 37.5 °F /  3.1 °C 36.7 °F /  2.6 °C 30.44 in /  1030.7 hPa ESE 2.0 mph /  3.2 km/h -999.0 mph /  -1607.7 km/h 97 % 0.00 in /  0 mm 0 W/m2
06:40 37.6 °F /  3.1 °C 36.6 °F /  2.6 °C 30.44 in /  1030.7 hPa ESE 4.0 mph /  6.4 km/h 4.0 mph /  6.4 km/h 96 % 0.00 in /  0 mm 0 W/m2
06:41 37.6 °F /  3.1 °C 36.6 °F /  2.6 °C 30.44 in /  1030.7 hPa ESE 3.0 mph /  4.8 km/h -999.0 mph /  -1607.7 km/h 96 % 0.00 in /  0 mm 0 W/m2
06:45 37.6 °F /  3.1 °C 36.6 °F /  2.6 °C 30.44 in /  1030.7 hPa ESE 3.0 mph /  4.8 km/h 4.0 mph /  6.4 km/h 96 % 0.00 in /  0 mm 0 W/m2
06:46 37.6 °F /  3.1 °C 36.6 °F /  2.6 °C 30.44 in /  1030.7 hPa ESE 3.0 mph /  4.8 km/h -999.0 mph /  -1607.7 km/h 96 % 0.00 in /  0 mm 0 W/m2
06:50 37.6 °F /  3.1 °C 36.6 °F /  2.6 °C 30.44 in /  1030.7 hPa ESE 2.0 mph /  3.2 km/h 2.0 mph /  3.2 km/h 96 % 0.00 in /  0 mm 0 W/m2
06:51 37.6 °F /  3.1 °C 36.6 °F /  2.6 °C 30.44 in /  1030.7 hPa ESE 3.0 mph /  4.8 km/h -999.0 mph /  -1607.7 km/h 96 % 0.00 in /  0 mm 0 W/m2
06:55 37.6 °F /  3.1 °C 36.6 °F /  2.6 °C 30.43 in /  1030.4 hPa SSE 3.0 mph /  4.8 km/h 3.0 mph /  4.8 km/h 96 % 0.00 in /  0 mm 0 W/m2
06:56 37.6 °F /  3.1 °C 36.6 °F /  2.6 °C 30.43 in /  1030.4 hPa ESE 3.0 mph /  4.8 km/h -999.0 mph /  -1607.7 km/h 96 % 0.00 in /  0 mm 0 W/m2
07:00 37.6 °F /  3.1 °C 36.6 °F /  2.6 °C 30.43 in /  1030.4 hPa ESE 3.0 mph /  4.8 km/h 4.0 mph /  6.4 km/h 96 % 0.00 in /  0 mm 0 W/m2
07:01 37.6 °F /  3.1 °C 36.6 °F /  2.6 °C 30.43 in /  1030.4 hPa ESE 3.0 mph /  4.8 km/h -999.0 mph /  -1607.7 km/h 96 % 0.00 in /  0 mm 0 W/m2
07:05 37.6 °F /  3.1 °C 36.6 °F /  2.6 °C 30.43 in /  1030.4 hPa ESE 4.0 mph /  6.4 km/h 5.0 mph /  8 km/h 96 % 0.00 in /  0 mm 0 W/m2
07:06 37.6 °F /  3.1 °C 36.6 °F /  2.6 °C 30.43 in /  1030.4 hPa ESE 3.0 mph /  4.8 km/h -999.0 mph /  -1607.7 km/h 96 % 0.00 in /  0 mm 0 W/m2
07:10 37.6 °F /  3.1 °C 36.6 °F /  2.6 °C 30.44 in /  1030.7 hPa ESE 4.0 mph /  6.4 km/h 4.0 mph /  6.4 km/h 96 % 0.00 in /  0 mm 0 W/m2
07:11 37.6 °F /  3.1 °C 36.6 °F /  2.6 °C 30.44 in /  1030.7 hPa ESE 3.0 mph /  4.8 km/h -999.0 mph /  -1607.7 km/h 96 % 0.00 in /  0 mm 0 W/m2
07:15 37.6 °F /  3.1 °C 36.6 °F /  2.6 °C 30.44 in /  1030.7 hPa SE 2.0 mph /  3.2 km/h 5.0 mph /  8 km/h 96 % 0.00 in /  0 mm 0 W/m2
07:16 37.6 °F /  3.1 °C 36.6 °F /  2.6 °C 30.44 in /  1030.7 hPa ESE 3.0 mph /  4.8 km/h -999.0 mph /  -1607.7 km/h 96 % 0.00 in /  0 mm 0 W/m2
07:21 37.6 °F /  3.1 °C 36.6 °F /  2.6 °C 30.44 in /  1030.7 hPa ESE 3.0 mph /  4.8 km/h -999.0 mph /  -1607.7 km/h 96 % 0.00 in /  0 mm 0 W/m2
07:25 37.6 °F /  3.1 °C 36.6 °F /  2.6 °C 30.44 in /  1030.7 hPa ESE 3.0 mph /  4.8 km/h 3.0 mph /  4.8 km/h 96 % 0.00 in /  0 mm 0 W/m2
07:26 37.6 °F /  3.1 °C 36.6 °F /  2.6 °C 30.43 in /  1030.4 hPa ESE 3.0 mph /  4.8 km/h -999.0 mph /  -1607.7 km/h 96 % 0.00 in /  0 mm 0 W/m2
07:30 37.6 °F /  3.1 °C 36.6 °F /  2.6 °C 30.44 in /  1030.7 hPa ESE 3.0 mph /  4.8 km/h 3.0 mph /  4.8 km/h 96 % 0.00 in /  0 mm 0 W/m2
07:31 37.6 °F /  3.1 °C 36.6 °F /  2.6 °C 30.43 in /  1030.4 hPa ESE 3.0 mph /  4.8 km/h -999.0 mph /  -1607.7 km/h 96 % 0.00 in /  0 mm 0 W/m2
07:35 37.6 °F /  3.1 °C 36.6 °F /  2.6 °C 30.43 in /  1030.4 hPa NE 2.0 mph /  3.2 km/h 3.0 mph /  4.8 km/h 96 % 0.00 in /  0 mm 0 W/m2
07:36 37.6 °F /  3.1 °C 36.6 °F /  2.6 °C 30.43 in /  1030.4 hPa ESE 3.0 mph /  4.8 km/h -999.0 mph /  -1607.7 km/h 96 % 0.00 in /  0 mm 0 W/m2
07:40 37.6 °F /  3.1 °C 36.6 °F /  2.6 °C 30.43 in /  1030.4 hPa East 2.0 mph /  3.2 km/h 2.0 mph /  3.2 km/h 96 % 0.00 in /  0 mm 0 W/m2
07:41 37.6 °F /  3.1 °C 36.6 °F /  2.6 °C 30.43 in /  1030.4 hPa East 2.0 mph /  3.2 km/h -999.0 mph /  -1607.7 km/h 96 % 0.00 in /  0 mm 0 W/m2
07:45 37.7 °F /  3.2 °C 36.7 °F /  2.6 °C 30.43 in /  1030.4 hPa ESE 2.0 mph /  3.2 km/h 4.0 mph /  6.4 km/h 96 % 0.00 in /  0 mm 0 W/m2
07:46 37.6 °F /  3.1 °C 36.6 °F /  2.6 °C 30.43 in /  1030.4 hPa East 2.0 mph /  3.2 km/h -999.0 mph /  -1607.7 km/h 96 % 0.00 in /  0 mm 0 W/m2
07:50 37.7 °F /  3.2 °C 36.7 °F /  2.6 °C 30.43 in /  1030.4 hPa East 3.0 mph /  4.8 km/h 4.0 mph /  6.4 km/h 96 % 0.00 in /  0 mm 0 W/m2
07:51 37.6 °F /  3.1 °C 36.6 °F /  2.6 °C 30.43 in /  1030.4 hPa East 2.0 mph /  3.2 km/h -999.0 mph /  -1607.7 km/h 96 % 0.00 in /  0 mm 0 W/m2
07:55 37.7 °F /  3.2 °C 36.7 °F /  2.6 °C 30.43 in /  1030.4 hPa ESE 3.0 mph /  4.8 km/h 4.0 mph /  6.4 km/h 96 % 0.00 in /  0 mm 0 W/m2
07:56 37.7 °F /  3.2 °C 36.7 °F /  2.6 °C 30.43 in /  1030.4 hPa ESE 3.0 mph /  4.8 km/h -999.0 mph /  -1607.7 km/h 96 % 0.00 in /  0 mm 0 W/m2
08:00 37.7 °F /  3.2 °C 36.7 °F /  2.6 °C 30.43 in /  1030.4 hPa ESE 3.0 mph /  4.8 km/h 7.0 mph /  11.3 km/h 96 % 0.00 in /  0 mm 0 W/m2
08:01 37.7 °F /  3.2 °C 36.7 °F /  2.6 °C 30.43 in /  1030.4 hPa ESE 3.0 mph /  4.8 km/h -999.0 mph /  -1607.7 km/h 96 % 0.00 in /  0 mm 0 W/m2
08:06 37.7 °F /  3.2 °C 36.7 °F /  2.6 °C 30.43 in /  1030.4 hPa ESE 3.0 mph /  4.8 km/h -999.0 mph /  -1607.7 km/h 96 % 0.00 in /  0 mm 0 W/m2
08:10 37.8 °F /  3.2 °C 36.8 °F /  2.7 °C 30.43 in /  1030.4 hPa ESE 4.0 mph /  6.4 km/h 4.0 mph /  6.4 km/h 96 % 0.00 in /  0 mm 0 W/m2
08:11 37.8 °F /  3.2 °C 36.8 °F /  2.7 °C 30.43 in /  1030.4 hPa ESE 4.0 mph /  6.4 km/h -999.0 mph /  -1607.7 km/h 96 % 0.00 in /  0 mm 0 W/m2
08:15 37.8 °F /  3.2 °C 36.8 °F /  2.7 °C 30.43 in /  1030.4 hPa ESE 4.0 mph /  6.4 km/h 6.0 mph /  9.7 km/h 96 % 0.00 in /  0 mm 0 W/m2
08:16 37.8 °F /  3.2 °C 36.8 °F /  2.7 °C 30.43 in /  1030.4 hPa ESE 4.0 mph /  6.4 km/h -999.0 mph /  -1607.7 km/h 96 % 0.00 in /  0 mm 0 W/m2
08:20 37.9 °F /  3.3 °C 36.9 °F /  2.7 °C 30.43 in /  1030.4 hPa East 3.0 mph /  4.8 km/h 4.0 mph /  6.4 km/h 96 % 0.00 in /  0 mm 0 W/m2
08:21 37.8 °F /  3.2 °C 36.8 °F /  2.7 °C 30.43 in /  1030.4 hPa ESE 4.0 mph /  6.4 km/h -999.0 mph /  -1607.7 km/h 96 % 0.00 in /  0 mm 0 W/m2
08:25 37.9 °F /  3.3 °C 36.9 °F /  2.7 °C 30.43 in /  1030.4 hPa ESE 3.0 mph /  4.8 km/h 6.0 mph /  9.7 km/h 96 % 0.00 in /  0 mm 0 W/m2
08:26 37.9 °F /  3.3 °C 36.6 °F /  2.6 °C 30.43 in /  1030.4 hPa ESE 4.0 mph /  6.4 km/h -999.0 mph /  -1607.7 km/h 95 % 0.00 in /  0 mm 2 W/m2
08:30 37.9 °F /  3.3 °C 36.6 °F /  2.6 °C 30.43 in /  1030.4 hPa ESE 4.0 mph /  6.4 km/h 5.0 mph /  8 km/h 95 % 0.00 in /  0 mm 5 W/m2
08:31 37.9 °F /  3.3 °C 36.6 °F /  2.6 °C 30.43 in /  1030.4 hPa ESE 4.0 mph /  6.4 km/h -999.0 mph /  -1607.7 km/h 95 % 0.00 in /  0 mm 2 W/m2
08:35 37.9 °F /  3.3 °C 36.6 °F /  2.6 °C 30.43 in /  1030.4 hPa ESE 4.0 mph /  6.4 km/h 5.0 mph /  8 km/h 95 % 0.00 in /  0 mm 5 W/m2
08:36 37.9 °F /  3.3 °C 36.6 °F /  2.6 °C 30.43 in /  1030.4 hPa ESE 4.0 mph /  6.4 km/h -999.0 mph /  -1607.7 km/h 95 % 0.00 in /  0 mm 2 W/m2
08:40 37.9 °F /  3.3 °C 36.6 °F /  2.6 °C 30.43 in /  1030.4 hPa SE 5.0 mph /  8 km/h 5.0 mph /  8 km/h 95 % 0.00 in /  0 mm 7 W/m2
08:41 37.9 °F /  3.3 °C 36.6 °F /  2.6 °C 30.44 in /  1030.7 hPa ESE 5.0 mph /  8 km/h -999.0 mph /  -1607.7 km/h 95 % 0.00 in /  0 mm 7 W/m2
08:45 37.9 °F /  3.3 °C 36.6 °F /  2.6 °C 30.44 in /  1030.7 hPa East 5.0 mph /  8 km/h 5.0 mph /  8 km/h 95 % 0.00 in /  0 mm 7 W/m2
08:46 37.9 °F /  3.3 °C 36.6 °F /  2.6 °C 30.44 in /  1030.7 hPa ESE 5.0 mph /  8 km/h -999.0 mph /  -1607.7 km/h 95 % 0.00 in /  0 mm 7 W/m2
08:50 37.8 °F /  3.2 °C 36.5 °F /  2.5 °C 30.43 in /  1030.4 hPa ESE 5.0 mph /  8 km/h 6.0 mph /  9.7 km/h 95 % 0.00 in /  0 mm 11 W/m2
08:51 37.9 °F /  3.3 °C 36.6 °F /  2.6 °C 30.44 in /  1030.7 hPa ESE 5.0 mph /  8 km/h -999.0 mph /  -1607.7 km/h 95 % 0.00 in /  0 mm 7 W/m2
08:55 37.8 °F /  3.2 °C 36.5 °F /  2.5 °C 30.44 in /  1030.7 hPa ESE 6.0 mph /  9.7 km/h 6.0 mph /  9.7 km/h 95 % 0.00 in /  0 mm 12 W/m2
08:56 37.8 °F /  3.2 °C 36.2 °F /  2.3 °C 30.44 in /  1030.7 hPa ESE 5.0 mph /  8 km/h -999.0 mph /  -1607.7 km/h 94 % 0.00 in /  0 mm 12 W/m2
09:01 37.8 °F /  3.2 °C 36.2 °F /  2.3 °C 30.44 in /  1030.7 hPa ESE 5.0 mph /  8 km/h -999.0 mph /  -1607.7 km/h 94 % 0.00 in /  0 mm 12 W/m2
09:05 37.8 °F /  3.2 °C 36.2 °F /  2.3 °C 30.43 in /  1030.4 hPa SE 5.0 mph /  8 km/h 7.0 mph /  11.3 km/h 94 % 0.00 in /  0 mm 18 W/m2
09:06 37.8 °F /  3.2 °C 36.2 °F /  2.3 °C 30.44 in /  1030.7 hPa ESE 5.0 mph /  8 km/h -999.0 mph /  -1607.7 km/h 94 % 0.00 in /  0 mm 12 W/m2
09:10 37.8 °F /  3.2 °C 36.2 °F /  2.3 °C 30.43 in /  1030.4 hPa ESE 5.0 mph /  8 km/h 5.0 mph /  8 km/h 94 % 0.00 in /  0 mm 18 W/m2
09:11 37.8 °F /  3.2 °C 36.2 °F /  2.3 °C 30.43 in /  1030.4 hPa ESE 5.0 mph /  8 km/h -999.0 mph /  -1607.7 km/h 94 % 0.00 in /  0 mm 18 W/m2
09:16 37.8 °F /  3.2 °C 36.2 °F /  2.3 °C 30.43 in /  1030.4 hPa ESE 5.0 mph /  8 km/h -999.0 mph /  -1607.7 km/h 94 % 0.00 in /  0 mm 18 W/m2
09:20 37.9 °F /  3.3 °C 36.3 °F /  2.4 °C 30.44 in /  1030.7 hPa ESE 4.0 mph /  6.4 km/h 4.0 mph /  6.4 km/h 94 % 0.00 in /  0 mm 21 W/m2
09:21 37.8 °F /  3.2 °C 36.2 °F /  2.3 °C 30.43 in /  1030.4 hPa ESE 5.0 mph /  8 km/h -999.0 mph /  -1607.7 km/h 94 % 0.00 in /  0 mm 18 W/m2
09:25 37.9 °F /  3.3 °C 36.1 °F /  2.3 °C 30.43 in /  1030.4 hPa ENE 4.0 mph /  6.4 km/h 4.0 mph /  6.4 km/h 93 % 0.00 in /  0 mm 25 W/m2
09:26 37.9 °F /  3.3 °C 36.1 °F /  2.3 °C 30.43 in /  1030.4 hPa ESE 4.0 mph /  6.4 km/h -999.0 mph /  -1607.7 km/h 93 % 0.00 in /  0 mm 23 W/m2
09:30 37.9 °F /  3.3 °C 36.1 °F /  2.3 °C 30.43 in /  1030.4 hPa ESE 4.0 mph /  6.4 km/h 4.0 mph /  6.4 km/h 93 % 0.00 in /  0 mm 26 W/m2
09:31 37.9 °F /  3.3 °C 36.1 °F /  2.3 °C 30.43 in /  1030.4 hPa ESE 4.0 mph /  6.4 km/h -999.0 mph /  -1607.7 km/h 93 % 0.00 in /  0 mm 23 W/m2
09:35 37.9 °F /  3.3 °C 36.1 °F /  2.3 °C 30.43 in /  1030.4 hPa ESE 5.0 mph /  8 km/h 6.0 mph /  9.7 km/h 93 % 0.00 in /  0 mm 37 W/m2
09:36 37.9 °F /  3.3 °C 36.1 °F /  2.3 °C 30.43 in /  1030.4 hPa ESE 4.0 mph /  6.4 km/h -999.0 mph /  -1607.7 km/h 93 % 0.00 in /  0 mm 23 W/m2
09:40 37.9 °F /  3.3 °C 36.1 °F /  2.3 °C 30.43 in /  1030.4 hPa SE 5.0 mph /  8 km/h 5.0 mph /  8 km/h 93 % 0.00 in /  0 mm 35 W/m2
09:41 37.9 °F /  3.3 °C 36.1 °F /  2.3 °C 30.43 in /  1030.4 hPa ESE 5.0 mph /  8 km/h -999.0 mph /  -1607.7 km/h 93 % 0.00 in /  0 mm 32 W/m2
09:46 37.9 °F /  3.3 °C 36.1 °F /  2.3 °C 30.43 in /  1030.4 hPa ESE 5.0 mph /  8 km/h -999.0 mph /  -1607.7 km/h 93 % 0.00 in /  0 mm 32 W/m2
09:50 38.0 °F /  3.3 °C 35.9 °F /  2.2 °C 30.43 in /  1030.4 hPa East 4.0 mph /  6.4 km/h 4.0 mph /  6.4 km/h 92 % 0.00 in /  0 mm 39 W/m2
09:51 37.9 °F /  3.3 °C 36.1 °F /  2.3 °C 30.43 in /  1030.4 hPa ESE 5.0 mph /  8 km/h -999.0 mph /  -1607.7 km/h 93 % 0.00 in /  0 mm 32 W/m2
09:55 38.1 °F /  3.4 °C 36.0 °F /  2.2 °C 30.43 in /  1030.4 hPa ESE 4.0 mph /  6.4 km/h 4.0 mph /  6.4 km/h 92 % 0.00 in /  0 mm 32 W/m2
09:56 38.0 °F /  3.3 °C 35.9 °F /  2.2 °C 30.43 in /  1030.4 hPa ESE 3.0 mph /  4.8 km/h -999.0 mph /  -1607.7 km/h 92 % 0.00 in /  0 mm 34 W/m2
10:00 38.1 °F /  3.4 °C 36.0 °F /  2.2 °C 30.43 in /  1030.4 hPa SE 3.0 mph /  4.8 km/h 4.0 mph /  6.4 km/h 92 % 0.00 in /  0 mm 32 W/m2
10:01 38.0 °F /  3.3 °C 35.9 °F /  2.2 °C 30.43 in /  1030.4 hPa ESE 3.0 mph /  4.8 km/h -999.0 mph /  -1607.7 km/h 92 % 0.00 in /  0 mm 34 W/m2
10:05 38.2 °F /  3.4 °C 36.1 °F /  2.3 °C 30.43 in /  1030.4 hPa East 2.0 mph /  3.2 km/h 4.0 mph /  6.4 km/h 92 % 0.00 in /  0 mm 30 W/m2
10:06 38.0 °F /  3.3 °C 35.9 °F /  2.2 °C 30.43 in /  1030.4 hPa ESE 3.0 mph /  4.8 km/h -999.0 mph /  -1607.7 km/h 92 % 0.00 in /  0 mm 34 W/m2
10:10 38.3 °F /  3.5 °C 36.2 °F /  2.3 °C 30.42 in /  1030 hPa East 2.0 mph /  3.2 km/h 5.0 mph /  8 km/h 92 % 0.00 in /  0 mm 28 W/m2
10:11 38.3 °F /  3.5 °C 36.2 °F /  2.3 °C 30.42 in /  1030 hPa ESE 2.0 mph /  3.2 km/h -999.0 mph /  -1607.7 km/h 92 % 0.00 in /  0 mm 28 W/m2
10:15 38.3 °F /  3.5 °C 36.2 °F /  2.3 °C 30.42 in /  1030 hPa East 3.0 mph /  4.8 km/h 5.0 mph /  8 km/h 92 % 0.00 in /  0 mm 26 W/m2
10:16 38.3 °F /  3.5 °C 36.2 °F /  2.3 °C 30.42 in /  1030 hPa ESE 2.0 mph /  3.2 km/h -999.0 mph /  -1607.7 km/h 92 % 0.00 in /  0 mm 28 W/m2
10:20 38.3 °F /  3.5 °C 36.2 °F /  2.3 °C 30.42 in /  1030 hPa East 3.0 mph /  4.8 km/h 5.0 mph /  8 km/h 92 % 0.00 in /  0 mm 23 W/m2
10:21 38.3 °F /  3.5 °C 36.2 °F /  2.3 °C 30.42 in /  1030 hPa ESE 2.0 mph /  3.2 km/h -999.0 mph /  -1607.7 km/h 92 % 0.00 in /  0 mm 28 W/m2
10:26 38.3 °F /  3.5 °C 36.2 °F /  2.3 °C 30.42 in /  1030 hPa ESE 4.0 mph /  6.4 km/h -999.0 mph /  -1607.7 km/h 92 % 0.00 in /  0 mm 24 W/m2
10:30 38.3 °F /  3.5 °C 36.2 °F /  2.3 °C 30.42 in /  1030 hPa East 4.0 mph /  6.4 km/h 7.0 mph /  11.3 km/h 92 % 0.00 in /  0 mm 26 W/m2
10:31 38.3 °F /  3.5 °C 36.2 °F /  2.3 °C 30.42 in /  1030 hPa ESE 4.0 mph /  6.4 km/h -999.0 mph /  -1607.7 km/h 92 % 0.00 in /  0 mm 24 W/m2
10:36 38.3 °F /  3.5 °C 36.2 °F /  2.3 °C 30.42 in /  1030 hPa ESE 4.0 mph /  6.4 km/h -999.0 mph /  -1607.7 km/h 92 % 0.00 in /  0 mm 24 W/m2
10:40 38.4 °F /  3.6 °C 36.0 °F /  2.2 °C 30.42 in /  1030 hPa SE 5.0 mph /  8 km/h 5.0 mph /  8 km/h 91 % 0.00 in /  0 mm 26 W/m2
10:41 38.3 °F /  3.5 °C 35.9 °F /  2.2 °C 30.42 in /  1030 hPa SE 5.0 mph /  8 km/h -999.0 mph /  -1607.7 km/h 91 % 0.00 in /  0 mm 25 W/m2
10:45 38.4 °F /  3.6 °C 36.3 °F /  2.4 °C 30.42 in /  1030 hPa SE 5.0 mph /  8 km/h 7.0 mph /  11.3 km/h 92 % 0.00 in /  0 mm 28 W/m2
10:46 38.3 °F /  3.5 °C 35.9 °F /  2.2 °C 30.42 in /  1030 hPa SE 5.0 mph /  8 km/h -999.0 mph /  -1607.7 km/h 91 % 0.00 in /  0 mm 25 W/m2
10:50 38.4 °F /  3.6 °C 36.0 °F /  2.2 °C 30.42 in /  1030 hPa SE 6.0 mph /  9.7 km/h 7.0 mph /  11.3 km/h 91 % 0.00 in /  0 mm 28 W/m2
10:51 38.3 °F /  3.5 °C 35.9 °F /  2.2 °C 30.42 in /  1030 hPa SE 5.0 mph /  8 km/h -999.0 mph /  -1607.7 km/h 91 % 0.00 in /  0 mm 25 W/m2
10:55 38.4 °F /  3.6 °C 36.0 °F /  2.2 °C 30.42 in /  1030 hPa SE 6.0 mph /  9.7 km/h 7.0 mph /  11.3 km/h 91 % 0.00 in /  0 mm 30 W/m2
10:56 38.4 °F /  3.6 °C 36.0 °F /  2.2 °C 30.41 in /  1029.7 hPa SE 6.0 mph /  9.7 km/h -999.0 mph /  -1607.7 km/h 91 % 0.00 in /  0 mm 31 W/m2
11:00 38.5 °F /  3.6 °C 36.1 °F /  2.3 °C 30.41 in /  1029.7 hPa SSE 7.0 mph /  11.3 km/h 7.0 mph /  11.3 km/h 91 % 0.00 in /  0 mm 33 W/m2
11:01 38.4 °F /  3.6 °C 36.0 °F /  2.2 °C 30.41 in /  1029.7 hPa SE 6.0 mph /  9.7 km/h -999.0 mph /  -1607.7 km/h 91 % 0.00 in /  0 mm 31 W/m2
11:05 38.5 °F /  3.6 °C 36.1 °F /  2.3 °C 30.41 in /  1029.7 hPa SE 7.0 mph /  11.3 km/h 7.0 mph /  11.3 km/h 91 % 0.00 in /  0 mm 33 W/m2
11:06 38.4 °F /  3.6 °C 36.0 °F /  2.2 °C 30.41 in /  1029.7 hPa SE 6.0 mph /  9.7 km/h -999.0 mph /  -1607.7 km/h 91 % 0.00 in /  0 mm 31 W/m2
11:10 38.5 °F /  3.6 °C 36.1 °F /  2.3 °C 30.41 in /  1029.7 hPa SE 6.0 mph /  9.7 km/h 6.0 mph /  9.7 km/h 91 % 0.00 in /  0 mm 32 W/m2
11:11 38.5 °F /  3.6 °C 36.1 °F /  2.3 °C 30.41 in /  1029.7 hPa SE 4.0 mph /  6.4 km/h -999.0 mph /  -1607.7 km/h 91 % 0.00 in /  0 mm 34 W/m2
11:15 38.6 °F /  3.7 °C 36.2 °F /  2.3 °C 30.41 in /  1029.7 hPa SE 4.0 mph /  6.4 km/h 6.0 mph /  9.7 km/h 91 % 0.00 in /  0 mm 39 W/m2
11:16 38.5 °F /  3.6 °C 36.1 °F /  2.3 °C 30.41 in /  1029.7 hPa SE 4.0 mph /  6.4 km/h -999.0 mph /  -1607.7 km/h 91 % 0.00 in /  0 mm 34 W/m2
11:20 38.6 °F /  3.7 °C 36.2 °F /  2.3 °C 30.41 in /  1029.7 hPa SSE 3.0 mph /  4.8 km/h 6.0 mph /  9.7 km/h 91 % 0.00 in /  0 mm 58 W/m2
11:21 38.5 °F /  3.6 °C 36.1 °F /  2.3 °C 30.41 in /  1029.7 hPa SE 4.0 mph /  6.4 km/h -999.0 mph /  -1607.7 km/h 91 % 0.00 in /  0 mm 34 W/m2
11:25 38.7 °F /  3.7 °C 36.3 °F /  2.4 °C 30.41 in /  1029.7 hPa SSE 4.0 mph /  6.4 km/h 6.0 mph /  9.7 km/h 91 % 0.00 in /  0 mm 60 W/m2
11:26 38.7 °F /  3.7 °C 36.3 °F /  2.4 °C 30.41 in /  1029.7 hPa SSE 5.0 mph /  8 km/h -999.0 mph /  -1607.7 km/h 91 % 0.00 in /  0 mm 58 W/m2
11:31 38.7 °F /  3.7 °C 36.3 °F /  2.4 °C 30.41 in /  1029.7 hPa SSE 5.0 mph /  8 km/h -999.0 mph /  -1607.7 km/h 91 % 0.00 in /  0 mm 58 W/m2
11:35 38.9 °F /  3.8 °C 36.5 °F /  2.5 °C 30.41 in /  1029.7 hPa SSE 5.0 mph /  8 km/h 7.0 mph /  11.3 km/h 91 % 0.00 in /  0 mm 54 W/m2
11:36 38.7 °F /  3.7 °C 36.3 °F /  2.4 °C 30.41 in /  1029.7 hPa SSE 5.0 mph /  8 km/h -999.0 mph /  -1607.7 km/h 91 % 0.00 in /  0 mm 58 W/m2
11:41 39.0 °F /  3.9 °C 36.6 °F /  2.6 °C 30.40 in /  1029.3 hPa South 4.0 mph /  6.4 km/h -999.0 mph /  -1607.7 km/h 91 % 0.00 in /  0 mm 59 W/m2
11:45 39.1 °F /  3.9 °C 36.7 °F /  2.6 °C 30.40 in /  1029.3 hPa South 4.0 mph /  6.4 km/h 5.0 mph /  8 km/h 91 % 0.00 in /  0 mm 62 W/m2
11:46 39.0 °F /  3.9 °C 36.6 °F /  2.6 °C 30.40 in /  1029.3 hPa South 4.0 mph /  6.4 km/h -999.0 mph /  -1607.7 km/h 91 % 0.00 in /  0 mm 59 W/m2
11:50 39.2 °F /  4 °C 36.5 °F /  2.5 °C 30.40 in /  1029.3 hPa SSE 4.0 mph /  6.4 km/h 5.0 mph /  8 km/h 90 % 0.00 in /  0 mm 56 W/m2
11:51 39.0 °F /  3.9 °C 36.6 °F /  2.6 °C 30.40 in /  1029.3 hPa South 4.0 mph /  6.4 km/h -999.0 mph /  -1607.7 km/h 91 % 0.00 in /  0 mm 59 W/m2
11:55 39.2 °F /  4 °C 36.5 °F /  2.5 °C 30.40 in /  1029.3 hPa SSE 4.0 mph /  6.4 km/h 5.0 mph /  8 km/h 90 % 0.00 in /  0 mm 51 W/m2
11:56 39.2 °F /  4 °C 36.5 °F /  2.5 °C 30.39 in /  1029 hPa SSE 5.0 mph /  8 km/h -999.0 mph /  -1607.7 km/h 90 % 0.00 in /  0 mm 58 W/m2
12:00 39.2 °F /  4 °C 36.5 °F /  2.5 °C 30.39 in /  1029 hPa South 5.0 mph /  8 km/h 5.0 mph /  8 km/h 90 % 0.00 in /  0 mm 60 W/m2
12:01 39.2 °F /  4 °C 36.5 °F /  2.5 °C 30.39 in /  1029 hPa SSE 5.0 mph /  8 km/h -999.0 mph /  -1607.7 km/h 90 % 0.00 in /  0 mm 58 W/m2
12:06 39.2 °F /  4 °C 36.5 °F /  2.5 °C 30.39 in /  1029 hPa SSE 5.0 mph /  8 km/h -999.0 mph /  -1607.7 km/h 90 % 0.00 in /  0 mm 58 W/m2
12:10 39.3 °F /  4.1 °C 36.6 °F /  2.6 °C 30.39 in /  1029 hPa SSW 4.0 mph /  6.4 km/h 4.0 mph /  6.4 km/h 90 % 0.00 in /  0 mm 62 W/m2
12:11 39.3 °F /  4.1 °C 36.6 °F /  2.6 °C 30.38 in /  1028.7 hPa SSE 4.0 mph /  6.4 km/h -999.0 mph /  -1607.7 km/h 90 % 0.00 in /  0 mm 65 W/m2
12:15 39.4 °F /  4.1 °C 36.7 °F /  2.6 °C 30.39 in /  1029 hPa SE 3.0 mph /  4.8 km/h 4.0 mph /  6.4 km/h 90 % 0.00 in /  0 mm 67 W/m2
12:16 39.3 °F /  4.1 °C 36.6 °F /  2.6 °C 30.38 in /  1028.7 hPa SSE 4.0 mph /  6.4 km/h -999.0 mph /  -1607.7 km/h 90 % 0.00 in /  0 mm 65 W/m2
12:20 39.4 °F /  4.1 °C 36.7 °F /  2.6 °C 30.38 in /  1028.7 hPa SSE 3.0 mph /  4.8 km/h 3.0 mph /  4.8 km/h 90 % 0.00 in /  0 mm 63 W/m2
12:21 39.3 °F /  4.1 °C 36.6 °F /  2.6 °C 30.38 in /  1028.7 hPa SSE 4.0 mph /  6.4 km/h -999.0 mph /  -1607.7 km/h 90 % 0.00 in /  0 mm 65 W/m2
12:25 39.5 °F /  4.2 °C 36.8 °F /  2.7 °C 30.38 in /  1028.7 hPa SE 2.0 mph /  3.2 km/h 3.0 mph /  4.8 km/h 90 % 0.00 in /  0 mm 54 W/m2
12:26 39.5 °F /  4.2 °C 36.8 °F /  2.7 °C 30.38 in /  1028.7 hPa SSE 1.0 mph /  1.6 km/h -999.0 mph /  -1607.7 km/h 90 % 0.00 in /  0 mm 57 W/m2
12:30 39.6 °F /  4.2 °C 36.9 °F /  2.7 °C 30.38 in /  1028.7 hPa SE 1.0 mph /  1.6 km/h 1.0 mph /  1.6 km/h 90 % 0.00 in /  0 mm 51 W/m2
12:31 39.5 °F /  4.2 °C 36.8 °F /  2.7 °C 30.38 in /  1028.7 hPa SSE 1.0 mph /  1.6 km/h -999.0 mph /  -1607.7 km/h 90 % 0.00 in /  0 mm 57 W/m2
12:35 39.7 °F /  4.3 °C 37.0 °F /  2.8 °C 30.38 in /  1028.7 hPa SE 2.0 mph /  3.2 km/h 2.0 mph /  3.2 km/h 90 % 0.00 in /  0 mm 60 W/m2
12:36 39.5 °F /  4.2 °C 36.8 °F /  2.7 °C 30.38 in /  1028.7 hPa SSE 1.0 mph /  1.6 km/h -999.0 mph /  -1607.7 km/h 90 % 0.00 in /  0 mm 57 W/m2
12:41 39.7 °F /  4.3 °C 36.7 °F /  2.6 °C 30.37 in /  1028.3 hPa SE 3.0 mph /  4.8 km/h -999.0 mph /  -1607.7 km/h 89 % 0.00 in /  0 mm 48 W/m2
12:45 39.8 °F /  4.3 °C 36.8 °F /  2.7 °C 30.37 in /  1028.3 hPa SE 3.0 mph /  4.8 km/h 7.0 mph /  11.3 km/h 89 % 0.00 in /  0 mm 39 W/m2
12:46 39.7 °F /  4.3 °C 36.7 °F /  2.6 °C 30.37 in /  1028.3 hPa SE 3.0 mph /  4.8 km/h -999.0 mph /  -1607.7 km/h 89 % 0.00 in /  0 mm 48 W/m2
12:51 39.7 °F /  4.3 °C 36.7 °F /  2.6 °C 30.37 in /  1028.3 hPa SE 3.0 mph /  4.8 km/h -999.0 mph /  -1607.7 km/h 89 % 0.00 in /  0 mm 48 W/m2
12:55 39.9 °F /  4.4 °C 36.9 °F /  2.7 °C 30.37 in /  1028.3 hPa East 4.0 mph /  6.4 km/h 5.0 mph /  8 km/h 89 % 0.00 in /  0 mm 47 W/m2
12:56 39.9 °F /  4.4 °C 36.9 °F /  2.7 °C 30.37 in /  1028.3 hPa SE 4.0 mph /  6.4 km/h -999.0 mph /  -1607.7 km/h 89 % 0.00 in /  0 mm 44 W/m2
13:00 39.9 °F /  4.4 °C 36.9 °F /  2.7 °C 30.37 in /  1028.3 hPa East 3.0 mph /  4.8 km/h 5.0 mph /  8 km/h 89 % 0.00 in /  0 mm 46 W/m2
13:01 39.9 °F /  4.4 °C 36.9 °F /  2.7 °C 30.37 in /  1028.3 hPa SE 4.0 mph /  6.4 km/h -999.0 mph /  -1607.7 km/h 89 % 0.00 in /  0 mm 44 W/m2
13:05 39.9 °F /  4.4 °C 36.9 °F /  2.7 °C 30.37 in /  1028.3 hPa ESE 4.0 mph /  6.4 km/h 5.0 mph /  8 km/h 89 % 0.00 in /  0 mm 44 W/m2
13:06 39.9 °F /  4.4 °C 36.9 °F /  2.7 °C 30.37 in /  1028.3 hPa SE 4.0 mph /  6.4 km/h -999.0 mph /  -1607.7 km/h 89 % 0.00 in /  0 mm 44 W/m2
13:10 39.9 °F /  4.4 °C 36.9 °F /  2.7 °C 30.36 in /  1028 hPa East 4.0 mph /  6.4 km/h 7.0 mph /  11.3 km/h 89 % 0.00 in /  0 mm 44 W/m2
13:11 39.9 °F /  4.4 °C 36.9 °F /  2.7 °C 30.36 in /  1028 hPa ESE 4.0 mph /  6.4 km/h -999.0 mph /  -1607.7 km/h 89 % 0.00 in /  0 mm 45 W/m2
13:15 39.8 °F /  4.3 °C 36.8 °F /  2.7 °C 30.36 in /  1028 hPa SE 3.0 mph /  4.8 km/h 7.0 mph /  11.3 km/h 89 % 0.00 in /  0 mm 40 W/m2
13:16 39.9 °F /  4.4 °C 36.9 °F /  2.7 °C 30.36 in /  1028 hPa ESE 4.0 mph /  6.4 km/h -999.0 mph /  -1607.7 km/h 89 % 0.00 in /  0 mm 45 W/m2
13:20 39.8 °F /  4.3 °C 36.8 °F /  2.7 °C 30.36 in /  1028 hPa ESE 3.0 mph /  4.8 km/h 3.0 mph /  4.8 km/h 89 % 0.00 in /  0 mm 46 W/m2
13:21 39.9 °F /  4.4 °C 36.9 °F /  2.7 °C 30.36 in /  1028 hPa ESE 4.0 mph /  6.4 km/h -999.0 mph /  -1607.7 km/h 89 % 0.00 in /  0 mm 45 W/m2
13:25 39.8 °F /  4.3 °C 36.8 °F /  2.7 °C 30.36 in /  1028 hPa ESE 3.0 mph /  4.8 km/h 6.0 mph /  9.7 km/h 89 % 0.00 in /  0 mm 47 W/m2
13:26 39.8 °F /  4.3 °C 37.1 °F /  2.8 °C 30.35 in /  1027.7 hPa ESE 3.0 mph /  4.8 km/h -999.0 mph /  -1607.7 km/h 90 % 0.00 in /  0 mm 47 W/m2
13:30 39.8 °F /  4.3 °C 37.1 °F /  2.8 °C 30.35 in /  1027.7 hPa ESE 3.0 mph /  4.8 km/h 3.0 mph /  4.8 km/h 90 % 0.00 in /  0 mm 42 W/m2
13:31 39.8 °F /  4.3 °C 37.1 °F /  2.8 °C 30.35 in /  1027.7 hPa ESE 3.0 mph /  4.8 km/h -999.0 mph /  -1607.7 km/h 90 % 0.00 in /  0 mm 47 W/m2
13:35 39.8 °F /  4.3 °C 37.1 °F /  2.8 °C 30.35 in /  1027.7 hPa East 2.0 mph /  3.2 km/h 3.0 mph /  4.8 km/h 90 % 0.00 in /  0 mm 49 W/m2
13:36 39.8 °F /  4.3 °C 37.1 °F /  2.8 °C 30.35 in /  1027.7 hPa ESE 3.0 mph /  4.8 km/h -999.0 mph /  -1607.7 km/h 90 % 0.00 in /  0 mm 47 W/m2
13:41 39.8 °F /  4.3 °C 37.1 °F /  2.8 °C 30.35 in /  1027.7 hPa ESE 2.0 mph /  3.2 km/h -999.0 mph /  -1607.7 km/h 90 % 0.00 in /  0 mm 42 W/m2
13:46 39.8 °F /  4.3 °C 37.1 °F /  2.8 °C 30.35 in /  1027.7 hPa ESE 2.0 mph /  3.2 km/h -999.0 mph /  -1607.7 km/h 90 % 0.00 in /  0 mm 42 W/m2
13:51 39.8 °F /  4.3 °C 37.1 °F /  2.8 °C 30.35 in /  1027.7 hPa ESE 2.0 mph /  3.2 km/h -999.0 mph /  -1607.7 km/h 90 % 0.00 in /  0 mm 42 W/m2
13:56 39.7 °F /  4.3 °C 37.3 °F /  2.9 °C 30.35 in /  1027.7 hPa ESE 2.0 mph /  3.2 km/h -999.0 mph /  -1607.7 km/h 91 % 0.00 in /  0 mm 35 W/m2
14:01 39.7 °F /  4.3 °C 37.3 °F /  2.9 °C 30.35 in /  1027.7 hPa ESE 2.0 mph /  3.2 km/h -999.0 mph /  -1607.7 km/h 91 % 0.00 in /  0 mm 35 W/m2
14:06 39.7 °F /  4.3 °C 37.3 °F /  2.9 °C 30.35 in /  1027.7 hPa ESE 2.0 mph /  3.2 km/h -999.0 mph /  -1607.7 km/h 91 % 0.00 in /  0 mm 35 W/m2
14:11 39.6 °F /  4.2 °C 37.5 °F /  3.1 °C 30.34 in /  1027.3 hPa ESE 3.0 mph /  4.8 km/h -999.0 mph /  -1607.7 km/h 92 % 0.00 in /  0 mm 32 W/m2
14:16 39.6 °F /  4.2 °C 37.5 °F /  3.1 °C 30.34 in /  1027.3 hPa ESE 3.0 mph /  4.8 km/h -999.0 mph /  -1607.7 km/h 92 % 0.00 in /  0 mm 32 W/m2
14:21 39.6 °F /  4.2 °C 37.5 °F /  3.1 °C 30.34 in /  1027.3 hPa ESE 3.0 mph /  4.8 km/h -999.0 mph /  -1607.7 km/h 92 % 0.00 in /  0 mm 32 W/m2
14:26 39.4 °F /  4.1 °C 37.5 °F /  3.1 °C 30.34 in /  1027.3 hPa East 2.0 mph /  3.2 km/h -999.0 mph /  -1607.7 km/h 93 % 0.00 in /  0 mm 17 W/m2
14:31 39.4 °F /  4.1 °C 37.5 °F /  3.1 °C 30.34 in /  1027.3 hPa East 2.0 mph /  3.2 km/h -999.0 mph /  -1607.7 km/h 93 % 0.00 in /  0 mm 17 W/m2
14:36 39.4 °F /  4.1 °C 37.5 °F /  3.1 °C 30.34 in /  1027.3 hPa East 2.0 mph /  3.2 km/h -999.0 mph /  -1607.7 km/h 93 % 0.00 in /  0 mm 17 W/m2
14:41 39.4 °F /  4.1 °C 37.8 °F /  3.2 °C 30.34 in /  1027.3 hPa ESE 1.0 mph /  1.6 km/h -999.0 mph /  -1607.7 km/h 94 % 0.00 in /  0 mm 25 W/m2
14:46 39.4 °F /  4.1 °C 37.8 °F /  3.2 °C 30.34 in /  1027.3 hPa ESE 1.0 mph /  1.6 km/h -999.0 mph /  -1607.7 km/h 94 % 0.00 in /  0 mm 25 W/m2
14:51 39.4 °F /  4.1 °C 37.8 °F /  3.2 °C 30.34 in /  1027.3 hPa ESE 1.0 mph /  1.6 km/h -999.0 mph /  -1607.7 km/h 94 % 0.00 in /  0 mm 25 W/m2
14:56 39.3 °F /  4.1 °C 37.7 °F /  3.2 °C 30.33 in /  1027 hPa Calm   -999.0 mph /  -1607.7 km/h 94 % 0.00 in /  0 mm 11 W/m2
15:01 39.3 °F /  4.1 °C 37.7 °F /  3.2 °C 30.33 in /  1027 hPa Calm   -999.0 mph /  -1607.7 km/h 94 % 0.00 in /  0 mm 11 W/m2
15:06 39.3 °F /  4.1 °C 37.7 °F /  3.2 °C 30.33 in /  1027 hPa Calm   -999.0 mph /  -1607.7 km/h 94 % 0.00 in /  0 mm 11 W/m2
15:11 39.3 °F /  4.1 °C 37.7 °F /  3.2 °C 30.33 in /  1027 hPa East 1.0 mph /  1.6 km/h -999.0 mph /  -1607.7 km/h 94 % 0.00 in /  0 mm 8 W/m2
15:16 39.3 °F /  4.1 °C 37.7 °F /  3.2 °C 30.33 in /  1027 hPa East 1.0 mph /  1.6 km/h -999.0 mph /  -1607.7 km/h 94 % 0.00 in /  0 mm 8 W/m2
15:21 39.3 °F /  4.1 °C 37.7 °F /  3.2 °C 30.33 in /  1027 hPa East 1.0 mph /  1.6 km/h -999.0 mph /  -1607.7 km/h 94 % 0.00 in /  0 mm 8 W/m2
15:26 39.3 °F /  4.1 °C 38.0 °F /  3.3 °C 30.33 in /  1027 hPa East 1.0 mph /  1.6 km/h -999.0 mph /  -1607.7 km/h 95 % 0.00 in /  0 mm 6 W/m2
15:31 39.3 °F /  4.1 °C 38.0 °F /  3.3 °C 30.33 in /  1027 hPa East 1.0 mph /  1.6 km/h -999.0 mph /  -1607.7 km/h 95 % 0.00 in /  0 mm 6 W/m2
15:36 39.3 °F /  4.1 °C 38.0 °F /  3.3 °C 30.33 in /  1027 hPa East 1.0 mph /  1.6 km/h -999.0 mph /  -1607.7 km/h 95 % 0.00 in /  0 mm 6 W/m2
15:41 39.2 °F /  4 °C 37.9 °F /  3.3 °C 30.33 in /  1027 hPa East 2.0 mph /  3.2 km/h -999.0 mph /  -1607.7 km/h 95 % 0.00 in /  0 mm 9 W/m2
15:46 39.2 °F /  4 °C 37.9 °F /  3.3 °C 30.33 in /  1027 hPa East 2.0 mph /  3.2 km/h -999.0 mph /  -1607.7 km/h 95 % 0.00 in /  0 mm 9 W/m2
15:51 39.2 °F /  4 °C 37.9 °F /  3.3 °C 30.33 in /  1027 hPa East 2.0 mph /  3.2 km/h -999.0 mph /  -1607.7 km/h 95 % 0.00 in /  0 mm 9 W/m2
15:56 39.1 °F /  3.9 °C 37.8 °F /  3.2 °C 30.32 in /  1026.6 hPa ENE 1.0 mph /  1.6 km/h -999.0 mph /  -1607.7 km/h 95 % 0.00 in /  0 mm 3 W/m2
16:01 39.1 °F /  3.9 °C 37.8 °F /  3.2 °C 30.32 in /  1026.6 hPa ENE 1.0 mph /  1.6 km/h -999.0 mph /  -1607.7 km/h 95 % 0.00 in /  0 mm 3 W/m2
16:06 39.1 °F /  3.9 °C 37.8 °F /  3.2 °C 30.32 in /  1026.6 hPa ENE 1.0 mph /  1.6 km/h -999.0 mph /  -1607.7 km/h 95 % 0.00 in /  0 mm 3 W/m2
16:11 39.0 °F /  3.9 °C 37.7 °F /  3.2 °C 30.32 in /  1026.6 hPa ENE 1.0 mph /  1.6 km/h -999.0 mph /  -1607.7 km/h 95 % 0.00 in /  0 mm 0 W/m2
16:16 39.0 °F /  3.9 °C 37.7 °F /  3.2 °C 30.32 in /  1026.6 hPa ENE 1.0 mph /  1.6 km/h -999.0 mph /  -1607.7 km/h 95 % 0.00 in /  0 mm 0 W/m2
16:21 39.0 °F /  3.9 °C 37.7 °F /  3.2 °C 30.32 in /  1026.6 hPa ENE 1.0 mph /  1.6 km/h -999.0 mph /  -1607.7 km/h 95 % 0.00 in /  0 mm 0 W/m2
16:26 39.0 °F /  3.9 °C 37.7 °F /  3.2 °C 30.32 in /  1026.6 hPa ENE 2.0 mph /  3.2 km/h -999.0 mph /  -1607.7 km/h 95 % 0.00 in /  0 mm 0 W/m2
16:31 39.0 °F /  3.9 °C 37.7 °F /  3.2 °C 30.32 in /  1026.6 hPa ENE 2.0 mph /  3.2 km/h -999.0 mph /  -1607.7 km/h 95 % 0.00 in /  0 mm 0 W/m2
16:36 39.0 °F /  3.9 °C 37.7 °F /  3.2 °C 30.32 in /  1026.6 hPa ENE 2.0 mph /  3.2 km/h -999.0 mph /  -1607.7 km/h 95 % 0.00 in /  0 mm 0 W/m2
16:41 38.9 °F /  3.8 °C 37.6 °F /  3.1 °C 30.32 in /  1026.6 hPa ESE 1.0 mph /  1.6 km/h -999.0 mph /  -1607.7 km/h 95 % 0.00 in /  0 mm 0 W/m2
16:46 38.9 °F /  3.8 °C 37.6 °F /  3.1 °C 30.32 in /  1026.6 hPa ESE 1.0 mph /  1.6 km/h -999.0 mph /  -1607.7 km/h 95 % 0.00 in /  0 mm 0 W/m2
16:51 38.9 °F /  3.8 °C 37.6 °F /  3.1 °C 30.32 in /  1026.6 hPa ESE 1.0 mph /  1.6 km/h -999.0 mph /  -1607.7 km/h 95 % 0.00 in /  0 mm 0 W/m2
16:56 38.9 °F /  3.8 °C 37.6 °F /  3.1 °C 30.32 in /  1026.6 hPa ENE 1.0 mph /  1.6 km/h -999.0 mph /  -1607.7 km/h 95 % 0.00 in /  0 mm 0 W/m2
17:01 38.9 °F /  3.8 °C 37.6 °F /  3.1 °C 30.32 in /  1026.6 hPa ENE 1.0 mph /  1.6 km/h -999.0 mph /  -1607.7 km/h 95 % 0.00 in /  0 mm 0 W/m2
17:06 38.9 °F /  3.8 °C 37.6 °F /  3.1 °C 30.32 in /  1026.6 hPa ENE 1.0 mph /  1.6 km/h -999.0 mph /  -1607.7 km/h 95 % 0.00 in /  0 mm 0 W/m2
17:11 38.9 °F /  3.8 °C 37.6 °F /  3.1 °C 30.32 in /  1026.6 hPa ENE 2.0 mph /  3.2 km/h -999.0 mph /  -1607.7 km/h 95 % 0.00 in /  0 mm 0 W/m2
17:16 38.9 °F /  3.8 °C 37.6 °F /  3.1 °C 30.32 in /  1026.6 hPa ENE 2.0 mph /  3.2 km/h -999.0 mph /  -1607.7 km/h 95 % 0.00 in /  0 mm 0 W/m2
17:21 38.9 °F /  3.8 °C 37.6 °F /  3.1 °C 30.32 in /  1026.6 hPa ENE 2.0 mph /  3.2 km/h -999.0 mph /  -1607.7 km/h 95 % 0.00 in /  0 mm 0 W/m2
17:26 38.9 °F /  3.8 °C 37.6 °F /  3.1 °C 30.31 in /  1026.3 hPa East 1.0 mph /  1.6 km/h -999.0 mph /  -1607.7 km/h 95 % 0.00 in /  0 mm 0 W/m2
17:31 38.9 °F /  3.8 °C 37.6 °F /  3.1 °C 30.31 in /  1026.3 hPa East 1.0 mph /  1.6 km/h -999.0 mph /  -1607.7 km/h 95 % 0.00 in /  0 mm 0 W/m2
17:36 38.9 °F /  3.8 °C 37.6 °F /  3.1 °C 30.31 in /  1026.3 hPa East 1.0 mph /  1.6 km/h -999.0 mph /  -1607.7 km/h 95 % 0.00 in /  0 mm 0 W/m2
17:41 38.9 °F /  3.8 °C 37.6 °F /  3.1 °C 30.31 in /  1026.3 hPa East 1.0 mph /  1.6 km/h -999.0 mph /  -1607.7 km/h 95 % 0.00 in /  0 mm 0 W/m2
17:46 38.9 °F /  3.8 °C 37.6 °F /  3.1 °C 30.31 in /  1026.3 hPa East 1.0 mph /  1.6 km/h -999.0 mph /  -1607.7 km/h 95 % 0.00 in /  0 mm 0 W/m2
17:51 38.9 °F /  3.8 °C 37.6 °F /  3.1 °C 30.31 in /  1026.3 hPa East 1.0 mph /  1.6 km/h -999.0 mph /  -1607.7 km/h 95 % 0.00 in /  0 mm 0 W/m2
17:56 38.8 °F /  3.8 °C 37.5 °F /  3.1 °C 30.30 in /  1026 hPa East 1.0 mph /  1.6 km/h -999.0 mph /  -1607.7 km/h 95 % 0.00 in /  0 mm 0 W/m2
18:01 38.8 °F /  3.8 °C 37.5 °F /  3.1 °C 30.30 in /  1026 hPa East 1.0 mph /  1.6 km/h -999.0 mph /  -1607.7 km/h 95 % 0.00 in /  0 mm 0 W/m2
18:06 38.8 °F /  3.8 °C 37.5 °F /  3.1 °C 30.30 in /  1026 hPa East 1.0 mph /  1.6 km/h -999.0 mph /  -1607.7 km/h 95 % 0.00 in /  0 mm 0 W/m2
18:11 38.8 °F /  3.8 °C 37.5 °F /  3.1 °C 30.30 in /  1026 hPa Calm   -999.0 mph /  -1607.7 km/h 95 % 0.00 in /  0 mm 0 W/m2
18:16 38.8 °F /  3.8 °C 37.5 °F /  3.1 °C 30.30 in /  1026 hPa Calm   -999.0 mph /  -1607.7 km/h 95 % 0.00 in /  0 mm 0 W/m2
18:21 38.8 °F /  3.8 °C 37.5 °F /  3.1 °C 30.30 in /  1026 hPa Calm   -999.0 mph /  -1607.7 km/h 95 % 0.00 in /  0 mm 0 W/m2
18:26 38.8 °F /  3.8 °C 37.5 °F /  3.1 °C 30.30 in /  1026 hPa East 1.0 mph /  1.6 km/h -999.0 mph /  -1607.7 km/h 95 % 0.00 in /  0 mm 0 W/m2
18:31 38.8 °F /  3.8 °C 37.5 °F /  3.1 °C 30.30 in /  1026 hPa East 1.0 mph /  1.6 km/h -999.0 mph /  -1607.7 km/h 95 % 0.00 in /  0 mm 0 W/m2
18:36 38.8 °F /  3.8 °C 37.5 °F /  3.1 °C 30.30 in /  1026 hPa East 1.0 mph /  1.6 km/h -999.0 mph /  -1607.7 km/h 95 % 0.00 in /  0 mm 0 W/m2
18:41 38.8 °F /  3.8 °C 37.5 °F /  3.1 °C 30.29 in /  1025.6 hPa ENE 2.0 mph /  3.2 km/h -999.0 mph /  -1607.7 km/h 95 % 0.00 in /  0 mm 0 W/m2
18:46 38.8 °F /  3.8 °C 37.5 °F /  3.1 °C 30.29 in /  1025.6 hPa ENE 2.0 mph /  3.2 km/h -999.0 mph /  -1607.7 km/h 95 % 0.00 in /  0 mm 0 W/m2
18:51 38.8 °F /  3.8 °C 37.5 °F /  3.1 °C 30.29 in /  1025.6 hPa ENE 2.0 mph /  3.2 km/h -999.0 mph /  -1607.7 km/h 95 % 0.00 in /  0 mm 0 W/m2
18:56 38.7 °F /  3.7 °C 37.4 °F /  3 °C 30.29 in /  1025.6 hPa ENE 2.0 mph /  3.2 km/h -999.0 mph /  -1607.7 km/h 95 % 0.00 in /  0 mm 0 W/m2
19:01 38.7 °F /  3.7 °C 37.4 °F /  3 °C 30.29 in /  1025.6 hPa ENE 2.0 mph /  3.2 km/h -999.0 mph /  -1607.7 km/h 95 % 0.00 in /  0 mm 0 W/m2
19:06 38.7 °F /  3.7 °C 37.4 °F /  3 °C 30.29 in /  1025.6 hPa ENE 2.0 mph /  3.2 km/h -999.0 mph /  -1607.7 km/h 95 % 0.00 in /  0 mm 0 W/m2
19:11 38.8 °F /  3.8 °C 37.5 °F /  3.1 °C 30.29 in /  1025.6 hPa ESE 2.0 mph /  3.2 km/h -999.0 mph /  -1607.7 km/h 95 % 0.00 in /  0 mm 0 W/m2
19:16 38.8 °F /  3.8 °C 37.5 °F /  3.1 °C 30.29 in /  1025.6 hPa ESE 2.0 mph /  3.2 km/h -999.0 mph /  -1607.7 km/h 95 % 0.00 in /  0 mm 0 W/m2
19:21 38.8 °F /  3.8 °C 37.5 °F /  3.1 °C 30.29 in /  1025.6 hPa ESE 2.0 mph /  3.2 km/h -999.0 mph /  -1607.7 km/h 95 % 0.00 in /  0 mm 0 W/m2
19:26 38.9 °F /  3.8 °C 37.9 °F /  3.3 °C 30.29 in /  1025.6 hPa ESE 2.0 mph /  3.2 km/h -999.0 mph /  -1607.7 km/h 96 % 0.00 in /  0 mm 0 W/m2
19:31 38.9 °F /  3.8 °C 37.9 °F /  3.3 °C 30.29 in /  1025.6 hPa ESE 2.0 mph /  3.2 km/h -999.0 mph /  -1607.7 km/h 96 % 0.00 in /  0 mm 0 W/m2
19:36 38.9 °F /  3.8 °C 37.9 °F /  3.3 °C 30.29 in /  1025.6 hPa ESE 2.0 mph /  3.2 km/h -999.0 mph /  -1607.7 km/h 96 % 0.00 in /  0 mm 0 W/m2
19:41 38.9 °F /  3.8 °C 37.9 °F /  3.3 °C 30.28 in /  1025.3 hPa East 2.0 mph /  3.2 km/h -999.0 mph /  -1607.7 km/h 96 % 0.00 in /  0 mm 0 W/m2
19:46 38.9 °F /  3.8 °C 37.9 °F /  3.3 °C 30.28 in /  1025.3 hPa East 2.0 mph /  3.2 km/h -999.0 mph /  -1607.7 km/h 96 % 0.00 in /  0 mm 0 W/m2
19:51 38.9 °F /  3.8 °C 37.9 °F /  3.3 °C 30.28 in /  1025.3 hPa East 2.0 mph /  3.2 km/h -999.0 mph /  -1607.7 km/h 96 % 0.00 in /  0 mm 0 W/m2
19:56 38.9 °F /  3.8 °C 37.9 °F /  3.3 °C 30.28 in /  1025.3 hPa East 2.0 mph /  3.2 km/h -999.0 mph /  -1607.7 km/h 96 % 0.00 in /  0 mm 0 W/m2
20:01 38.9 °F /  3.8 °C 37.9 °F /  3.3 °C 30.28 in /  1025.3 hPa East 2.0 mph /  3.2 km/h -999.0 mph /  -1607.7 km/h 96 % 0.00 in /  0 mm 0 W/m2
20:06 38.9 °F /  3.8 °C 37.9 °F /  3.3 °C 30.28 in /  1025.3 hPa East 2.0 mph /  3.2 km/h -999.0 mph /  -1607.7 km/h 96 % 0.00 in /  0 mm 0 W/m2
20:11 38.9 °F /  3.8 °C 37.9 °F /  3.3 °C 30.28 in /  1025.3 hPa ESE 3.0 mph /  4.8 km/h -999.0 mph /  -1607.7 km/h 96 % 0.00 in /  0 mm 0 W/m2
20:16 38.9 °F /  3.8 °C 37.9 °F /  3.3 °C 30.28 in /  1025.3 hPa ESE 3.0 mph /  4.8 km/h -999.0 mph /  -1607.7 km/h 96 % 0.00 in /  0 mm 0 W/m2
20:21 38.9 °F /  3.8 °C 37.9 °F /  3.3 °C 30.28 in /  1025.3 hPa ESE 3.0 mph /  4.8 km/h -999.0 mph /  -1607.7 km/h 96 % 0.00 in /  0 mm 0 W/m2
20:26 38.9 °F /  3.8 °C 37.9 °F /  3.3 °C 30.28 in /  1025.3 hPa ESE 5.0 mph /  8 km/h -999.0 mph /  -1607.7 km/h 96 % 0.00 in /  0 mm 0 W/m2
20:31 38.9 °F /  3.8 °C 37.9 °F /  3.3 °C 30.28 in /  1025.3 hPa ESE 5.0 mph /  8 km/h -999.0 mph /  -1607.7 km/h 96 % 0.00 in /  0 mm 0 W/m2
20:36 38.9 °F /  3.8 °C 37.9 °F /  3.3 °C 30.28 in /  1025.3 hPa ESE 5.0 mph /  8 km/h -999.0 mph /  -1607.7 km/h 96 % 0.00 in /  0 mm 0 W/m2
20:41 38.7 °F /  3.7 °C 37.7 °F /  3.2 °C 30.28 in /  1025.3 hPa ESE 5.0 mph /  8 km/h -999.0 mph /  -1607.7 km/h 96 % 0.00 in /  0 mm 0 W/m2
20:46 38.7 °F /  3.7 °C 37.7 °F /  3.2 °C 30.28 in /  1025.3 hPa ESE 5.0 mph /  8 km/h -999.0 mph /  -1607.7 km/h 96 % 0.00 in /  0 mm 0 W/m2
20:51 38.7 °F /  3.7 °C 37.7 °F /  3.2 °C 30.28 in /  1025.3 hPa ESE 5.0 mph /  8 km/h -999.0 mph /  -1607.7 km/h 96 % 0.00 in /  0 mm 0 W/m2
20:56 38.6 °F /  3.7 °C 37.6 °F /  3.1 °C 30.28 in /  1025.3 hPa ESE 5.0 mph /  8 km/h -999.0 mph /  -1607.7 km/h 96 % 0.00 in /  0 mm 0 W/m2
21:01 38.6 °F /  3.7 °C 37.6 °F /  3.1 °C 30.28 in /  1025.3 hPa ESE 5.0 mph /  8 km/h -999.0 mph /  -1607.7 km/h 96 % 0.00 in /  0 mm 0 W/m2
21:06 38.6 °F /  3.7 °C 37.6 °F /  3.1 °C 30.28 in /  1025.3 hPa ESE 5.0 mph /  8 km/h -999.0 mph /  -1607.7 km/h 96 % 0.00 in /  0 mm 0 W/m2
21:11 38.4 °F /  3.6 °C 37.4 °F /  3 °C 30.28 in /  1025.3 hPa SE 6.0 mph /  9.7 km/h -999.0 mph /  -1607.7 km/h 96 % 0.00 in /  0 mm 0 W/m2
21:16 38.4 °F /  3.6 °C 37.4 °F /  3 °C 30.28 in /  1025.3 hPa SE 6.0 mph /  9.7 km/h -999.0 mph /  -1607.7 km/h 96 % 0.00 in /  0 mm 0 W/m2
21:21 38.4 °F /  3.6 °C 37.4 °F /  3 °C 30.28 in /  1025.3 hPa SE 6.0 mph /  9.7 km/h -999.0 mph /  -1607.7 km/h 96 % 0.00 in /  0 mm 0 W/m2
21:26 38.2 °F /  3.4 °C 37.2 °F /  2.9 °C 30.28 in /  1025.3 hPa SE 6.0 mph /  9.7 km/h -999.0 mph /  -1607.7 km/h 96 % 0.00 in /  0 mm 0 W/m2
21:31 38.2 °F /  3.4 °C 37.2 °F /  2.9 °C 30.28 in /  1025.3 hPa SE 6.0 mph /  9.7 km/h -999.0 mph /  -1607.7 km/h 96 % 0.00 in /  0 mm 0 W/m2
21:36 38.2 °F /  3.4 °C 37.2 °F /  2.9 °C 30.28 in /  1025.3 hPa SE 6.0 mph /  9.7 km/h -999.0 mph /  -1607.7 km/h 96 % 0.00 in /  0 mm 0 W/m2
21:41 38.0 °F /  3.3 °C 36.7 °F /  2.6 °C 30.28 in /  1025.3 hPa SE 5.0 mph /  8 km/h -999.0 mph /  -1607.7 km/h 95 % 0.00 in /  0 mm 0 W/m2
21:46 38.0 °F /  3.3 °C 36.7 °F /  2.6 °C 30.28 in /  1025.3 hPa SE 5.0 mph /  8 km/h -999.0 mph /  -1607.7 km/h 95 % 0.00 in /  0 mm 0 W/m2
21:51 38.0 °F /  3.3 °C 36.7 °F /  2.6 °C 30.28 in /  1025.3 hPa SE 5.0 mph /  8 km/h -999.0 mph /  -1607.7 km/h 95 % 0.00 in /  0 mm 0 W/m2
21:56 37.8 °F /  3.2 °C 36.2 °F /  2.3 °C 30.27 in /  1024.9 hPa SE 5.0 mph /  8 km/h -999.0 mph /  -1607.7 km/h 94 % 0.00 in /  0 mm 0 W/m2
22:01 37.8 °F /  3.2 °C 36.2 °F /  2.3 °C 30.27 in /  1024.9 hPa SE 5.0 mph /  8 km/h -999.0 mph /  -1607.7 km/h 94 % 0.00 in /  0 mm 0 W/m2
22:06 37.8 °F /  3.2 °C 36.2 °F /  2.3 °C 30.27 in /  1024.9 hPa SE 5.0 mph /  8 km/h -999.0 mph /  -1607.7 km/h 94 % 0.00 in /  0 mm 0 W/m2
22:11 37.6 °F /  3.1 °C 35.2 °F /  1.8 °C 30.27 in /  1024.9 hPa SE 7.0 mph /  11.3 km/h -999.0 mph /  -1607.7 km/h 91 % 0.00 in /  0 mm 0 W/m2
22:16 37.6 °F /  3.1 °C 35.2 °F /  1.8 °C 30.27 in /  1024.9 hPa SE 7.0 mph /  11.3 km/h -999.0 mph /  -1607.7 km/h 91 % 0.00 in /  0 mm 0 W/m2
22:21 37.6 °F /  3.1 °C 35.2 °F /  1.8 °C 30.27 in /  1024.9 hPa SE 7.0 mph /  11.3 km/h -999.0 mph /  -1607.7 km/h 91 % 0.00 in /  0 mm 0 W/m2
22:26 37.6 °F /  3.1 °C 34.7 °F /  1.5 °C 30.27 in /  1024.9 hPa SE 5.0 mph /  8 km/h -999.0 mph /  -1607.7 km/h 89 % 0.00 in /  0 mm 0 W/m2
22:31 37.6 °F /  3.1 °C 34.7 °F /  1.5 °C 30.27 in /  1024.9 hPa SE 5.0 mph /  8 km/h -999.0 mph /  -1607.7 km/h 89 % 0.00 in /  0 mm 0 W/m2
22:36 37.6 °F /  3.1 °C 34.7 °F /  1.5 °C 30.27 in /  1024.9 hPa SE 5.0 mph /  8 km/h -999.0 mph /  -1607.7 km/h 89 % 0.00 in /  0 mm 0 W/m2
22:41 37.5 °F /  3.1 °C 33.7 °F /  0.9 °C 30.27 in /  1024.9 hPa ESE 7.0 mph /  11.3 km/h -999.0 mph /  -1607.7 km/h 86 % 0.00 in /  0 mm 0 W/m2
22:46 37.5 °F /  3.1 °C 33.7 °F /  0.9 °C 30.27 in /  1024.9 hPa ESE 7.0 mph /  11.3 km/h -999.0 mph /  -1607.7 km/h 86 % 0.00 in /  0 mm 0 W/m2
22:51 37.5 °F /  3.1 °C 33.7 °F /  0.9 °C 30.27 in /  1024.9 hPa ESE 7.0 mph /  11.3 km/h -999.0 mph /  -1607.7 km/h 86 % 0.00 in /  0 mm 0 W/m2
22:56 37.8 °F /  3.2 °C 33.7 °F /  0.9 °C 30.27 in /  1024.9 hPa SE 6.0 mph /  9.7 km/h -999.0 mph /  -1607.7 km/h 85 % 0.00 in /  0 mm 0 W/m2
23:01 37.8 °F /  3.2 °C 33.7 °F /  0.9 °C 30.27 in /  1024.9 hPa SE 6.0 mph /  9.7 km/h -999.0 mph /  -1607.7 km/h 85 % 0.00 in /  0 mm 0 W/m2
23:06 37.8 °F /  3.2 °C 33.7 °F /  0.9 °C 30.27 in /  1024.9 hPa SE 6.0 mph /  9.7 km/h -999.0 mph /  -1607.7 km/h 85 % 0.00 in /  0 mm 0 W/m2
23:11 37.8 °F /  3.2 °C 34.0 °F /  1.1 °C 30.27 in /  1024.9 hPa SE 5.0 mph /  8 km/h -999.0 mph /  -1607.7 km/h 86 % 0.00 in /  0 mm 0 W/m2
23:16 37.8 °F /  3.2 °C 34.0 °F /  1.1 °C 30.27 in /  1024.9 hPa SE 5.0 mph /  8 km/h -999.0 mph /  -1607.7 km/h 86 % 0.00 in /  0 mm 0 W/m2
23:21 37.8 °F /  3.2 °C 34.0 °F /  1.1 °C 30.27 in /  1024.9 hPa SE 5.0 mph /  8 km/h -999.0 mph /  -1607.7 km/h 86 % 0.00 in /  0 mm 0 W/m2
23:26 37.8 °F /  3.2 °C 34.3 °F /  1.3 °C 30.27 in /  1024.9 hPa SE 3.0 mph /  4.8 km/h -999.0 mph /  -1607.7 km/h 87 % 0.00 in /  0 mm 0 W/m2
23:31 37.8 °F /  3.2 °C 34.3 °F /  1.3 °C 30.27 in /  1024.9 hPa SE 3.0 mph /  4.8 km/h -999.0 mph /  -1607.7 km/h 87 % 0.00 in /  0 mm 0 W/m2
23:36 37.8 °F /  3.2 °C 34.3 °F /  1.3 °C 30.27 in /  1024.9 hPa SE 3.0 mph /  4.8 km/h -999.0 mph /  -1607.7 km/h 87 % 0.00 in /  0 mm 0 W/m2
23:41 37.7 °F /  3.2 °C 34.5 °F /  1.4 °C 30.27 in /  1024.9 hPa SE 3.0 mph /  4.8 km/h -999.0 mph /  -1607.7 km/h 88 % 0.00 in /  0 mm 0 W/m2
23:46 37.7 °F /  3.2 °C 34.5 °F /  1.4 °C 30.27 in /  1024.9 hPa SE 3.0 mph /  4.8 km/h -999.0 mph /  -1607.7 km/h 88 % 0.00 in /  0 mm 0 W/m2
23:51 37.7 °F /  3.2 °C 34.5 °F /  1.4 °C 30.27 in /  1024.9 hPa SE 3.0 mph /  4.8 km/h -999.0 mph /  -1607.7 km/h 88 % 0.00 in /  0 mm 0 W/m2
23:56 37.6 °F /  3.1 °C 34.4 °F /  1.3 °C 30.27 in /  1024.9 hPa SE 1.0 mph /  1.6 km/h -999.0 mph /  -1607.7 km/h 88 % 0.00 in /  0 mm 0 W/m2
Delerius-Weather
Compliments of Weather Underground - 3 mb

Data updates at regular intervals.